Observation data for Lake McClellan 2NW on 08/13/2019      Previous  Date       Current Mesonet Observations  Soil Data  Daily Summary Page  Observations in Plain Language
KMC5 130500Z 01015KT 22/20 A3008 RMK A01 T02160195  RH  087%=      5-min Rain = 0
KMC5 130501Z 01015KT 22/20 A3008 RMK A01 T02160195  RH  088%=      5-min Rain = 0
KMC5 130502Z 01015KT 22/20 A3008 RMK A01 T02150196  RH  089%=      5-min Rain = 0
KMC5 130503Z 01014KT 21/20 A3007 RMK A01 T02140197  RH  090%=      5-min Rain = 0
KMC5 130504Z 01015KT 21/20 A3007 RMK A01 T02130197  RH  090%=      5-min Rain = 0
KMC5 130505Z 02015KT 21/20 A3007 RMK A01 T02120197  RH  091%=      5-min Rain = 0
KMC5 130506Z 02014KT 21/20 A3007 RMK A01 T02120196  RH  091%=      5-min Rain = 0
KMC5 130507Z 02015KT 21/20 A3007 RMK A01 T02120196  RH  091%=      5-min Rain = 0
KMC5 130508Z 03014KT 21/20 A3007 RMK A01 T02120196  RH  091%=      5-min Rain = 0
KMC5 130509Z 03014G19KT 21/20 A3007 RMK A01 T02110195  RH  091%=      5-min Rain = 0
KMC5 130510Z 04016KT 21/20 A3006 RMK A01 T02110195  RH  090%=      5-min Rain = 0
KMC5 130511Z 04015KT 21/19 A3006 RMK A01 T02110194  RH  090%=      5-min Rain = 0
KMC5 130512Z 05014KT 21/20 A3006 RMK A01 T02120195  RH  090%=      5-min Rain = 0
KMC5 130513Z 05016KT 21/19 A3006 RMK A01 T02120194  RH  090%=      5-min Rain = 0
KMC5 130514Z 05016KT 21/19 A3006 RMK A01 T02120193  RH  089%=      5-min Rain = 0
KMC5 130515Z 05015KT 21/19 A3006 RMK A01 T02130193  RH  088%=      5-min Rain = 0
KMC5 130516Z 06015KT 21/19 A3005 RMK A01 T02130193  RH  089%=      5-min Rain = 0
KMC5 130517Z 06015KT 21/19 A3005 RMK A01 T02130194  RH  089%=      5-min Rain = 0
KMC5 130518Z 06015KT 21/19 A3005 RMK A01 T02120192  RH  088%=      5-min Rain = 0
KMC5 130519Z 06015KT 21/19 A3005 RMK A01 T02120193  RH  089%=      5-min Rain = 0
KMC5 130520Z 06015KT 21/19 A3005 RMK A01 T02120194  RH  089%=      5-min Rain = 0
KMC5 130521Z 06016KT 21/19 A3005 RMK A01 T02120193  RH  089%=      5-min Rain = 0
KMC5 130522Z 06014KT 21/19 A3005 RMK A01 T02120193  RH  089%=      5-min Rain = 0
KMC5 130523Z 07015KT 21/19 A3005 RMK A01 T02120193  RH  089%=      5-min Rain = 0
KMC5 130524Z 07014KT 21/19 A3005 RMK A01 T02120192  RH  088%=      5-min Rain = 0
KMC5 130525Z 07015KT 21/19 A3005 RMK A01 T02130192  RH  088%=      5-min Rain = 0
KMC5 130526Z 07015KT 21/19 A3005 RMK A01 T02130192  RH  088%=      5-min Rain = 0
KMC5 130527Z 07015KT 21/19 A3005 RMK A01 T02130191  RH  087%=      5-min Rain = 0
KMC5 130528Z 08014KT 21/19 A3005 RMK A01 T02140192  RH  087%=      5-min Rain = 0
KMC5 130529Z 08012KT 21/19 A3005 RMK A01 T02140192  RH  087%=      5-min Rain = 0
KMC5 130530Z 08013KT 21/19 A3005 RMK A01 T02130192  RH  088%=      5-min Rain = 0
KMC5 130531Z 08014KT 21/19 A3005 RMK A01 T02130192  RH  088%=      5-min Rain = 0
KMC5 130532Z 08015KT 21/19 A3005 RMK A01 T02130192  RH  088%=      5-min Rain = 0
KMC5 130533Z 08016KT 21/19 A3004 RMK A01 T02130192  RH  088%=      5-min Rain = 0
KMC5 130534Z 08014KT 21/19 A3004 RMK A01 T02130192  RH  088%=      5-min Rain = 0
KMC5 130535Z 09014KT 21/19 A3004 RMK A01 T02130192  RH  088%=      5-min Rain = 0
KMC5 130536Z 09015KT 21/19 A3004 RMK A01 T02130193  RH  088%=      5-min Rain = 0
KMC5 130537Z 08017KT 21/19 A3004 RMK A01 T02130192  RH  088%=      5-min Rain = 0
KMC5 130538Z 08016KT 21/19 A3004 RMK A01 T02130191  RH  087%=      5-min Rain = 0
KMC5 130539Z 08015KT 21/19 A3004 RMK A01 T02130191  RH  087%=      5-min Rain = 0
KMC5 130540Z 09017KT 21/19 A3004 RMK A01 T02130191  RH  087%=      5-min Rain = 0
KMC5 130541Z 08016KT 21/19 A3004 RMK A01 T02140191  RH  087%=      5-min Rain = 0
KMC5 130542Z 08016KT 21/19 A3004 RMK A01 T02140191  RH  087%=      5-min Rain = 0
KMC5 130543Z 08015KT 21/19 A3004 RMK A01 T02140191  RH  087%=      5-min Rain = 0
KMC5 130544Z 09016KT 21/19 A3004 RMK A01 T02140191  RH  087%=      5-min Rain = 0
KMC5 130545Z 08017KT 21/19 A3004 RMK A01 T02140191  RH  087%=      5-min Rain = 0
KMC5 130546Z 09017KT 22/19 A3004 RMK A01 T02150191  RH  086%=      5-min Rain = 0
KMC5 130547Z 09018KT 22/19 A3004 RMK A01 T02150191  RH  086%=      5-min Rain = 0
KMC5 130548Z 09017G22KT 22/19 A3004 RMK A01 T02160191  RH  086%=      5-min Rain = 0
KMC5 130549Z 09018G23KT 22/19 A3004 RMK A01 T02160191  RH  086%=      5-min Rain = 0
KMC5 130550Z 08018KT 22/19 A3004 RMK A01 T02160191  RH  086%=      5-min Rain = 0
KMC5 130551Z 09018KT 22/19 A3004 RMK A01 T02160191  RH  086%=      5-min Rain = 0
KMC5 130552Z 09018KT 22/19 A3004 RMK A01 T02160191  RH  086%=      5-min Rain = 0
KMC5 130553Z 10017G22KT 22/19 A3004 RMK A01 T02160191  RH  086%=      5-min Rain = 0
KMC5 130554Z 10017KT 22/19 A3004 RMK A01 T02160191  RH  086%=      5-min Rain = 0
KMC5 130555Z 10017KT 22/19 A3005 RMK A01 T02160192  RH  086%=      5-min Rain = 0
KMC5 130556Z 09017G22KT 22/19 A3005 RMK A01 T02170191  RH  085%=      5-min Rain = 0
KMC5 130557Z 09014KT 22/19 A3006 RMK A01 T02170191  RH  085%=      5-min Rain = 0
KMC5 130558Z 09014KT 22/19 A3006 RMK A01 T02170191  RH  085%=      5-min Rain = 0
KMC5 130559Z 09016KT 22/19 A3006 RMK A01 T02170190  RH  085%=      5-min Rain = 0
KMC5 130600Z 09014KT 22/19 A3006 RMK A01 T02180190  RH  084%=      5-min Rain = 0
KMC5 130601Z 09012KT 22/19 A3006 RMK A01 T02190190  RH  084%=      5-min Rain = 0
KMC5 130602Z 08012KT 22/19 A3006 RMK A01 T02190191  RH  084%=      5-min Rain = 0
KMC5 130603Z 08015KT 22/19 A3006 RMK A01 T02190190  RH  084%=      5-min Rain = 0
KMC5 130604Z 08014KT 22/19 A3006 RMK A01 T02190190  RH  084%=      5-min Rain = 0
KMC5 130605Z 08015G20KT 22/19 A3005 RMK A01 T02190191  RH  084%=      5-min Rain = 0
KMC5 130606Z 07017KT 22/19 A3005 RMK A01 T02180189  RH  083%=      5-min Rain = 0
KMC5 130607Z 07017G22KT 22/19 A3005 RMK A01 T02190190  RH  084%=      5-min Rain = 0
KMC5 130608Z 07018KT 22/19 A3005 RMK A01 T02180191  RH  084%=      5-min Rain = 0
KMC5 130609Z 07018KT 22/19 A3005 RMK A01 T02180191  RH  085%=      5-min Rain = 0.02
KMC5 130610Z 07019KT 22/19 A3004 RMK A01 T02170192  RH  085%=      5-min Rain = 0
KMC5 130611Z 08017KT 22/19 A3004 RMK A01 T02160192  RH  086%=      5-min Rain = 0
KMC5 130612Z 08017KT 22/19 A3004 RMK A01 T02160192  RH  086%=      5-min Rain = 0
KMC5 130613Z 08015KT 22/19 A3005 RMK A01 T02150192  RH  087%=      5-min Rain = 0
KMC5 130614Z 09015KT 22/19 A3005 RMK A01 T02150193  RH  088%=      5-min Rain = 0
KMC5 130615Z 09015G22KT 21/19 A3005 RMK A01 T02140193  RH  088%=      5-min Rain = 0
KMC5 130616Z 09017KT 21/19 A3005 RMK A01 T02140192  RH  088%=      5-min Rain = 0
KMC5 130617Z 09017KT 21/19 A3005 RMK A01 T02140193  RH  088%=      5-min Rain = 0
KMC5 130618Z 09017KT 21/19 A3005 RMK A01 T02140193  RH  087%=      5-min Rain = 0
KMC5 130619Z 09018KT 21/19 A3005 RMK A01 T02140192  RH  087%=      5-min Rain = 0
KMC5 130620Z 09017KT 22/19 A3004 RMK A01 T02150192  RH  087%=      5-min Rain = 0
KMC5 130621Z 09018KT 22/19 A3004 RMK A01 T02150193  RH  088%=      5-min Rain = 0
KMC5 130622Z 09018KT 21/19 A3004 RMK A01 T02140193  RH  088%=      5-min Rain = 0
KMC5 130623Z 09016KT 21/19 A3004 RMK A01 T02140193  RH  088%=      5-min Rain = 0
KMC5 130624Z 09017KT 21/19 A3004 RMK A01 T02130194  RH  089%=      5-min Rain = 0
KMC5 130625Z 09015KT 21/19 A3004 RMK A01 T02130194  RH  089%=      5-min Rain = 0
KMC5 130626Z 08015KT 21/19 A3004 RMK A01 T02120194  RH  089%=      5-min Rain = 0
KMC5 130627Z 08015KT 21/19 A3004 RMK A01 T02110194  RH  090%=      5-min Rain = 0
KMC5 130628Z 08015KT 21/20 A3004 RMK A01 T02110195  RH  090%=      5-min Rain = 0
KMC5 130629Z 08015KT 21/20 A3004 RMK A01 T02110195  RH  090%=      5-min Rain = 0
KMC5 130630Z 08013KT 21/20 A3004 RMK A01 T02100195  RH  091%=      5-min Rain = 0
KMC5 130631Z 08012KT 21/20 A3004 RMK A01 T02100195  RH  091%=      5-min Rain = 0
KMC5 130632Z 08015KT 21/20 A3004 RMK A01 T02100195  RH  091%=      5-min Rain = 0
KMC5 130633Z 08015KT 21/20 A3004 RMK A01 T02100195  RH  091%=      5-min Rain = 0
KMC5 130634Z 08014KT 21/20 A3004 RMK A01 T02100195  RH  091%=      5-min Rain = 0
KMC5 130635Z 08015KT 21/20 A3004 RMK A01 T02100195  RH  091%=      5-min Rain = 0
KMC5 130636Z 08015KT 21/20 A3004 RMK A01 T02100195  RH  091%=      5-min Rain = 0
KMC5 130637Z 08016KT 21/20 A3004 RMK A01 T02100195  RH  091%=      5-min Rain = 0
KMC5 130638Z 08015KT 21/19 A3004 RMK A01 T02100194  RH  091%=      5-min Rain = 0
KMC5 130639Z 08014KT 21/20 A3004 RMK A01 T02100195  RH  091%=      5-min Rain = 0
KMC5 130640Z 08013KT 21/20 A3004 RMK A01 T02110195  RH  091%=      5-min Rain = 0
KMC5 130641Z 08014KT 21/20 A3004 RMK A01 T02100195  RH  091%=      5-min Rain = 0
KMC5 130642Z 08014KT 21/20 A3004 RMK A01 T02100195  RH  091%=      5-min Rain = 0
KMC5 130643Z 08012KT 21/20 A3004 RMK A01 T02100195  RH  091%=      5-min Rain = 0
KMC5 130644Z 08012KT 21/20 A3004 RMK A01 T02100196  RH  092%=      5-min Rain = 0
KMC5 130645Z 08012G18KT 21/20 A3003 RMK A01 T02100196  RH  092%=      5-min Rain = 0
KMC5 130646Z 08014KT 21/20 A3003 RMK A01 T02090196  RH  092%=      5-min Rain = 0
KMC5 130647Z 08012KT 21/20 A3003 RMK A01 T02100196  RH  092%=      5-min Rain = 0
KMC5 130648Z 08011KT 21/20 A3003 RMK A01 T02100195  RH  092%=      5-min Rain = 0
KMC5 130649Z 08012KT 21/20 A3003 RMK A01 T02100196  RH  092%=      5-min Rain = 0
KMC5 130650Z 08014KT 21/20 A3003 RMK A01 T02100196  RH  092%=      5-min Rain = 0
KMC5 130651Z 08014KT 21/20 A3003 RMK A01 T02100196  RH  091%=      5-min Rain = 0
KMC5 130652Z 08013KT 21/20 A3003 RMK A01 T02110196  RH  091%=      5-min Rain = 0
KMC5 130653Z 08013KT 21/20 A3003 RMK A01 T02110195  RH  091%=      5-min Rain = 0
KMC5 130654Z 08012KT 21/20 A3003 RMK A01 T02120196  RH  091%=      5-min Rain = 0
KMC5 130655Z 08013G19KT 21/20 A3003 RMK A01 T02110196  RH  091%=      5-min Rain = 0
KMC5 130656Z 08013G18KT 21/20 A3003 RMK A01 T02110195  RH  090%=      5-min Rain = 0
KMC5 130657Z 08013KT 21/20 A3003 RMK A01 T02120195  RH  090%=      5-min Rain = 0
KMC5 130658Z 08012KT 21/20 A3003 RMK A01 T02130195  RH  090%=      5-min Rain = 0
KMC5 130659Z 07011KT 21/20 A3003 RMK A01 T02130196  RH  090%=      5-min Rain = 0
KMC5 130700Z 08010KT 21/20 A3003 RMK A01 T02130196  RH  090%=      5-min Rain = 0
KMC5 130701Z 08011KT 21/20 A3003 RMK A01 T02130196  RH  090%=      5-min Rain = 0
KMC5 130702Z 07010KT 21/20 A3003 RMK A01 T02130196  RH  090%=      5-min Rain = 0
KMC5 130703Z 07009KT 21/20 A3003 RMK A01 T02130196  RH  090%=      5-min Rain = 0
KMC5 130704Z 08010KT 21/20 A3003 RMK A01 T02130197  RH  091%=      5-min Rain = 0
KMC5 130705Z 08009KT 21/20 A3003 RMK A01 T02130197  RH  091%=      5-min Rain = 0
KMC5 130706Z 08009KT 21/20 A3004 RMK A01 T02130197  RH  091%=      5-min Rain = 0
KMC5 130707Z 09011KT 21/20 A3004 RMK A01 T02130196  RH  090%=      5-min Rain = 0
KMC5 130708Z 08007KT 22/20 A3004 RMK A01 T02150196  RH  089%=      5-min Rain = 0
KMC5 130709Z 09010KT 22/20 A3004 RMK A01 T02150197  RH  089%=      5-min Rain = 0
KMC5 130710Z 08008KT 22/20 A3004 RMK A01 T02160196  RH  088%=      5-min Rain = 0
KMC5 130711Z 08008KT 22/20 A3004 RMK A01 T02170196  RH  088%=      5-min Rain = 0
KMC5 130712Z 08009KT 22/20 A3004 RMK A01 T02170196  RH  088%=      5-min Rain = 0
KMC5 130713Z 08010KT 22/20 A3004 RMK A01 T02180196  RH  087%=      5-min Rain = 0
KMC5 130714Z 08010KT 22/20 A3004 RMK A01 T02180196  RH  087%=      5-min Rain = 0
KMC5 130715Z 08009KT 22/20 A3004 RMK A01 T02190197  RH  087%=      5-min Rain = 0.01
KMC5 130716Z 08009KT 22/20 A3004 RMK A01 T02190197  RH  088%=      5-min Rain = 0
KMC5 130717Z 09007KT 22/20 A3004 RMK A01 T02180198  RH  088%=      5-min Rain = 0
KMC5 130718Z 08009KT 22/20 A3004 RMK A01 T02170198  RH  089%=      5-min Rain = 0
KMC5 130719Z 09009KT 22/20 A3004 RMK A01 T02160197  RH  089%=      5-min Rain = 0
KMC5 130720Z 09010KT 22/20 A3004 RMK A01 T02160197  RH  089%=      5-min Rain = 0
KMC5 130721Z 09010KT 22/20 A3004 RMK A01 T02160197  RH  089%=      5-min Rain = 0
KMC5 130722Z 09009KT 22/20 A3004 RMK A01 T02160197  RH  089%=      5-min Rain = 0
KMC5 130723Z 09008KT 22/20 A3003 RMK A01 T02160197  RH  089%=      5-min Rain = 0
KMC5 130724Z 10010KT 22/20 A3003 RMK A01 T02160198  RH  089%=      5-min Rain = 0
KMC5 130725Z 10008KT 22/20 A3003 RMK A01 T02160197  RH  089%=      5-min Rain = 0
KMC5 130726Z 09008KT 22/20 A3003 RMK A01 T02160198  RH  089%=      5-min Rain = 0
KMC5 130727Z 09009KT 22/20 A3003 RMK A01 T02160198  RH  089%=      5-min Rain = 0
KMC5 130728Z 10008KT 22/20 A3003 RMK A01 T02160198  RH  089%=      5-min Rain = 0
KMC5 130729Z 10009KT 22/20 A3003 RMK A01 T02160198  RH  089%=      5-min Rain = 0
KMC5 130730Z 10008KT 22/20 A3003 RMK A01 T02160197  RH  089%=      5-min Rain = 0.01
KMC5 130731Z 10010KT 22/20 A3003 RMK A01 T02160197  RH  089%=      5-min Rain = 0
KMC5 130732Z 10010KT 22/20 A3003 RMK A01 T02160198  RH  089%=      5-min Rain = 0
KMC5 130733Z 10009KT 22/20 A3003 RMK A01 T02160197  RH  089%=      5-min Rain = 0
KMC5 130734Z 11012KT 22/20 A3003 RMK A01 T02170197  RH  089%=      5-min Rain = 0
KMC5 130735Z 10010KT 22/20 A3002 RMK A01 T02170196  RH  088%=      5-min Rain = 0.01
KMC5 130736Z 11014G20KT 22/20 A3002 RMK A01 T02170197  RH  089%=      5-min Rain = 0
KMC5 130737Z 11016KT 22/20 A3002 RMK A01 T02170196  RH  088%=      5-min Rain = 0
KMC5 130738Z 11017KT 22/20 A3002 RMK A01 T02170196  RH  088%=      5-min Rain = 0
KMC5 130739Z 11017KT 22/20 A3002 RMK A01 T02180195  RH  087%=      5-min Rain = 0
KMC5 130740Z 11013KT 22/20 A3001 RMK A01 T02190196  RH  087%=      5-min Rain = 0
KMC5 130741Z 12015KT 22/20 A3001 RMK A01 T02190197  RH  087%=      5-min Rain = 0
KMC5 130742Z 11015KT 22/20 A3001 RMK A01 T02190197  RH  087%=      5-min Rain = 0
KMC5 130743Z 11012KT 22/20 A3001 RMK A01 T02180198  RH  088%=      5-min Rain = 0
KMC5 130744Z 10013KT 22/20 A3001 RMK A01 T02170198  RH  089%=      5-min Rain = 0
KMC5 130745Z 09010KT 22/20 A3001 RMK A01 T02160198  RH  090%=      5-min Rain = 0
KMC5 130746Z 09011KT 22/20 A3001 RMK A01 T02150199  RH  090%=      5-min Rain = 0
KMC5 130747Z 09011KT 21/20 A30 RMK A01 T02140199  RH  091%=      5-min Rain = 0
KMC5 130748Z 08010KT 21/20 A30 RMK A01 T02140198  RH  091%=      5-min Rain = 0
KMC5 130749Z 07008KT 21/20 A3001 RMK A01 T02140199  RH  091%=      5-min Rain = 0
KMC5 130750Z 07009KT 21/20 A3001 RMK A01 T02130199  RH  092%=      5-min Rain = 0
KMC5 130751Z 07008KT 21/20 A3001 RMK A01 T02120199  RH  092%=      5-min Rain = 0
KMC5 130752Z 07007KT 21/20 A3001 RMK A01 T02110199  RH  093%=      5-min Rain = 0
KMC5 130753Z 07009KT 21/20 A3001 RMK A01 T02110199  RH  093%=      5-min Rain = 0
KMC5 130754Z 07010KT 21/20 A3001 RMK A01 T02110199  RH  093%=      5-min Rain = 0
KMC5 130755Z 07011KT 21/20 A3001 RMK A01 T02100199  RH  093%=      5-min Rain = 0
KMC5 130756Z 07010KT 21/20 A3001 RMK A01 T02110199  RH  093%=      5-min Rain = 0
KMC5 130757Z 08009KT 21/20 A3001 RMK A01 T02100198  RH  093%=      5-min Rain = 0
KMC5 130758Z 08009KT 21/20 A3001 RMK A01 T02100199  RH  093%=      5-min Rain = 0
KMC5 130759Z 08009KT 21/20 A3001 RMK A01 T02110199  RH  093%=      5-min Rain = 0
KMC5 130800Z 08009KT 21/20 A3002 RMK A01 T02110198  RH  093%=      5-min Rain = 0.01
KMC5 130801Z 08010KT 21/20 A3002 RMK A01 T02110199  RH  093%=      5-min Rain = 0
KMC5 130802Z 08009KT 21/20 A3002 RMK A01 T02110199  RH  093%=      5-min Rain = 0
KMC5 130803Z 09007KT 21/20 A3002 RMK A01 T02110198  RH  093%=      5-min Rain = 0
KMC5 130804Z 09007KT 21/20 A3002 RMK A01 T02110199  RH  093%=      5-min Rain = 0
KMC5 130805Z 08008KT 21/20 A3002 RMK A01 T02110200  RH  093%=      5-min Rain = 0
KMC5 130806Z 08008KT 21/20 A3002 RMK A01 T02110200  RH  093%=      5-min Rain = 0
KMC5 130807Z 07009KT 21/20 A3002 RMK A01 T02100199  RH  093%=      5-min Rain = 0
KMC5 130808Z 07011KT 21/20 A3002 RMK A01 T02100199  RH  094%=      5-min Rain = 0
KMC5 130809Z 07010KT 21/20 A3002 RMK A01 T02100199  RH  094%=      5-min Rain = 0
KMC5 130810Z 07009KT 21/20 A3002 RMK A01 T02100200  RH  094%=      5-min Rain = 0
KMC5 130811Z 07011KT 21/20 A3002 RMK A01 T02090200  RH  094%=      5-min Rain = 0
KMC5 130812Z 07011KT 21/20 A3002 RMK A01 T02090199  RH  094%=      5-min Rain = 0
KMC5 130813Z 06012KT 21/20 A3002 RMK A01 T02090199  RH  094%=      5-min Rain = 0
KMC5 130814Z 06011KT 21/20 A3002 RMK A01 T02090199  RH  094%=      5-min Rain = 0
KMC5 130815Z 07012KT 21/20 A3002 RMK A01 T02080199  RH  094%=      5-min Rain = 0
KMC5 130816Z 06013KT 21/20 A3001 RMK A01 T02080199  RH  095%=      5-min Rain = 0
KMC5 130817Z 07013KT 21/20 A3001 RMK A01 T02080199  RH  095%=      5-min Rain = 0
KMC5 130818Z 07014KT 21/20 A3001 RMK A01 T02070199  RH  095%=      5-min Rain = 0
KMC5 130819Z 07014KT 21/20 A3001 RMK A01 T02070198  RH  095%=      5-min Rain = 0
KMC5 130820Z 07012KT 21/20 A3002 RMK A01 T02070199  RH  095%=      5-min Rain = 0
KMC5 130821Z 07011KT 21/20 A3002 RMK A01 T02070199  RH  095%=      5-min Rain = 0
KMC5 130822Z 06012KT 21/20 A3002 RMK A01 T02070199  RH  095%=      5-min Rain = 0
KMC5 130823Z 06012KT 21/20 A3002 RMK A01 T02070198  RH  095%=      5-min Rain = 0
KMC5 130824Z 06012KT 21/20 A3002 RMK A01 T02070198  RH  095%=      5-min Rain = 0
KMC5 130825Z 06010KT 21/20 A3002 RMK A01 T02070198  RH  095%=      5-min Rain = 0
KMC5 130826Z 06009KT 21/20 A3002 RMK A01 T02070199  RH  095%=      5-min Rain = 0
KMC5 130827Z 06009KT 21/20 A3002 RMK A01 T02070199  RH  095%=      5-min Rain = 0
KMC5 130828Z 06011KT 21/20 A3002 RMK A01 T02070199  RH  095%=      5-min Rain = 0
KMC5 130829Z 06010KT 21/20 A3002 RMK A01 T02060198  RH  095%=      5-min Rain = 0
KMC5 130830Z 07010KT 21/20 A3002 RMK A01 T02060198  RH  095%=      5-min Rain = 0
KMC5 130831Z 06011KT 21/20 A3002 RMK A01 T02060198  RH  095%=      5-min Rain = 0
KMC5 130832Z 07011KT 21/20 A3002 RMK A01 T02060198  RH  095%=      5-min Rain = 0
KMC5 130833Z 07011KT 21/20 A3002 RMK A01 T02060198  RH  095%=      5-min Rain = 0
KMC5 130834Z 07012KT 21/20 A3002 RMK A01 T02060198  RH  095%=      5-min Rain = 0
KMC5 130835Z 07011KT 21/20 A3001 RMK A01 T02060198  RH  095%=      5-min Rain = 0
KMC5 130836Z 07011KT 21/20 A3001 RMK A01 T02060198  RH  095%=      5-min Rain = 0
KMC5 130837Z 07011KT 21/20 A3001 RMK A01 T02060198  RH  095%=      5-min Rain = 0
KMC5 130838Z 07011KT 21/20 A3001 RMK A01 T02060198  RH  095%=      5-min Rain = 0
KMC5 130839Z 06010KT 21/20 A3001 RMK A01 T02060198  RH  095%=      5-min Rain = 0
KMC5 130840Z 05009KT 21/20 A3001 RMK A01 T02050197  RH  095%=      5-min Rain = 0
KMC5 130841Z 05009KT 21/20 A3001 RMK A01 T02050197  RH  095%=      5-min Rain = 0
KMC5 130842Z 04009KT 21/20 A3001 RMK A01 T02060198  RH  095%=      5-min Rain = 0
KMC5 130843Z 04010KT 21/20 A3001 RMK A01 T02050198  RH  095%=      5-min Rain = 0
KMC5 130844Z 04011KT 21/20 A3001 RMK A01 T02050197  RH  095%=      5-min Rain = 0
KMC5 130845Z 05011KT 21/20 A3001 RMK A01 T02050197  RH  095%=      5-min Rain = 0
KMC5 130846Z 05012KT 21/20 A3001 RMK A01 T02050197  RH  095%=      5-min Rain = 0
KMC5 130847Z 06011KT 21/20 A3001 RMK A01 T02050197  RH  095%=      5-min Rain = 0
KMC5 130848Z 06011KT 21/20 A3001 RMK A01 T02050196  RH  095%=      5-min Rain = 0
KMC5 130849Z 07011KT 21/20 A3001 RMK A01 T02050196  RH  094%=      5-min Rain = 0
KMC5 130850Z 07011KT 21/20 A3001 RMK A01 T02060196  RH  094%=      5-min Rain = 0
KMC5 130851Z 06011KT 21/20 A3001 RMK A01 T02050196  RH  094%=      5-min Rain = 0
KMC5 130852Z 06011KT 21/20 A3001 RMK A01 T02050196  RH  094%=      5-min Rain = 0
KMC5 130853Z 06010KT 21/20 A3001 RMK A01 T02050196  RH  094%=      5-min Rain = 0
KMC5 130854Z 06009KT 21/20 A3001 RMK A01 T02050196  RH  094%=      5-min Rain = 0
KMC5 130855Z 06010KT 21/20 A3001 RMK A01 T02050196  RH  095%=      5-min Rain = 0
KMC5 130856Z 05009KT 21/20 A3001 RMK A01 T02050196  RH  095%=      5-min Rain = 0
KMC5 130857Z 04009KT 21/20 A3001 RMK A01 T02050196  RH  095%=      5-min Rain = 0
KMC5 130858Z 04009KT 20/20 A3001 RMK A01 T02040196  RH  095%=      5-min Rain = 0
KMC5 130859Z 03009KT 20/20 A3001 RMK A01 T02040196  RH  095%=      5-min Rain = 0
KMC5 130900Z 04009KT 21/20 A3001 RMK A01 T02050197  RH  095%=      5-min Rain = 0
KMC5 130901Z 03009KT 20/20 A3001 RMK A01 T02040197  RH  095%=      5-min Rain = 0
KMC5 130902Z 03009KT 20/20 A3001 RMK A01 T02040197  RH  096%=      5-min Rain = 0
KMC5 130903Z 04009KT 20/20 A3001 RMK A01 T02040197  RH  096%=      5-min Rain = 0
KMC5 130904Z 04009KT 20/20 A3001 RMK A01 T02040197  RH  096%=      5-min Rain = 0
KMC5 130905Z 04009KT 20/20 A3001 RMK A01 T02030197  RH  096%=      5-min Rain = 0
KMC5 130906Z 05009KT 20/20 A3001 RMK A01 T02040197  RH  096%=      5-min Rain = 0
KMC5 130907Z 05008KT 20/20 A3001 RMK A01 T02040197  RH  096%=      5-min Rain = 0
KMC5 130908Z 05008KT 20/20 A3001 RMK A01 T02040197  RH  096%=      5-min Rain = 0
KMC5 130909Z 05008KT 20/20 A3001 RMK A01 T02040197  RH  096%=      5-min Rain = 0
KMC5 130910Z 04007KT 20/20 A3001 RMK A01 T02040197  RH  096%=      5-min Rain = 0
KMC5 130911Z 04008KT 20/20 A3001 RMK A01 T02030196  RH  096%=      5-min Rain = 0
KMC5 130912Z 04008KT 20/20 A3001 RMK A01 T02030196  RH  096%=      5-min Rain = 0
KMC5 130913Z 04008KT 20/20 A3001 RMK A01 T02030196  RH  096%=      5-min Rain = 0
KMC5 130914Z 03008KT 20/20 A3001 RMK A01 T02030196  RH  096%=      5-min Rain = 0
KMC5 130915Z 03008KT 20/20 A3001 RMK A01 T02030196  RH  096%=      5-min Rain = 0
KMC5 130916Z 03007KT 20/20 A3001 RMK A01 T02030196  RH  096%=      5-min Rain = 0
KMC5 130917Z 03008KT 20/20 A3001 RMK A01 T02020196  RH  096%=      5-min Rain = 0.01
KMC5 130918Z 03008KT 20/20 A3001 RMK A01 T02020196  RH  096%=      5-min Rain = 0
KMC5 130919Z 04009KT 20/20 A3001 RMK A01 T02020196  RH  096%=      5-min Rain = 0
KMC5 130920Z 03009KT 20/20 A3001 RMK A01 T02020196  RH  096%=      5-min Rain = 0
KMC5 130921Z 04009KT 20/20 A3001 RMK A01 T02020196  RH  096%=      5-min Rain = 0
KMC5 130922Z 04009KT 20/20 A3001 RMK A01 T02020196  RH  096%=      5-min Rain = 0
KMC5 130923Z 04009KT 20/20 A3001 RMK A01 T02020196  RH  096%=      5-min Rain = 0
KMC5 130924Z 04009KT 20/20 A3001 RMK A01 T02020196  RH  096%=      5-min Rain = 0
KMC5 130925Z 04009KT 20/20 A3001 RMK A01 T02020196  RH  096%=      5-min Rain = 0
KMC5 130926Z 04009KT 20/20 A3001 RMK A01 T02020196  RH  096%=      5-min Rain = 0
KMC5 130927Z 03009KT 20/20 A3001 RMK A01 T02020196  RH  096%=      5-min Rain = 0
KMC5 130928Z 03009KT 20/20 A3001 RMK A01 T02020196  RH  096%=      5-min Rain = 0
KMC5 130929Z 03009KT 20/20 A3001 RMK A01 T02020196  RH  096%=      5-min Rain = 0
KMC5 130930Z 03009KT 20/20 A3001 RMK A01 T02020196  RH  096%=      5-min Rain = 0
KMC5 130931Z 04008KT 20/20 A3001 RMK A01 T02020196  RH  096%=      5-min Rain = 0
KMC5 130932Z 04008KT 20/20 A3002 RMK A01 T02020196  RH  096%=      5-min Rain = 0
KMC5 130933Z 04008KT 20/20 A3002 RMK A01 T02020195  RH  096%=      5-min Rain = 0
KMC5 130934Z 04007KT 20/20 A3002 RMK A01 T02020195  RH  096%=      5-min Rain = 0
KMC5 130935Z 04007KT 20/20 A3002 RMK A01 T02020195  RH  096%=      5-min Rain = 0
KMC5 130936Z 04006KT 20/20 A3002 RMK A01 T02020195  RH  096%=      5-min Rain = 0
KMC5 130937Z 04006KT 20/20 A3002 RMK A01 T02020195  RH  096%=      5-min Rain = 0
KMC5 130938Z 05006KT 20/20 A3002 RMK A01 T02020195  RH  096%=      5-min Rain = 0
KMC5 130939Z 05006KT 20/20 A3002 RMK A01 T02020195  RH  096%=      5-min Rain = 0
KMC5 130940Z 04007KT 20/20 A3002 RMK A01 T02010195  RH  096%=      5-min Rain = 0
KMC5 130941Z 04006KT 20/20 A3002 RMK A01 T02020195  RH  096%=      5-min Rain = 0
KMC5 130942Z 04006KT 20/20 A3002 RMK A01 T02010195  RH  096%=      5-min Rain = 0
KMC5 130943Z 05006KT 20/20 A3002 RMK A01 T02010195  RH  096%=      5-min Rain = 0
KMC5 130944Z 05006KT 20/19 A3002 RMK A01 T02010194  RH  096%=      5-min Rain = 0
KMC5 130945Z 05006KT 20/20 A3002 RMK A01 T02010195  RH  096%=      5-min Rain = 0
KMC5 130946Z 05007KT 20/20 A3002 RMK A01 T02010195  RH  096%=      5-min Rain = 0
KMC5 130947Z 04006KT 20/20 A3002 RMK A01 T02010195  RH  096%=      5-min Rain = 0
KMC5 130948Z 03007KT 20/20 A3002 RMK A01 T02010195  RH  096%=      5-min Rain = 0
KMC5 130949Z 03007KT 20/19 A3002 RMK A01 T02000194  RH  096%=      5-min Rain = 0
KMC5 130950Z 03007KT 20/19 A3002 RMK A01 T02000194  RH  096%=      5-min Rain = 0
KMC5 130951Z 04007KT 20/19 A3002 RMK A01 T02000194  RH  097%=      5-min Rain = 0
KMC5 130952Z 04007KT 20/19 A3002 RMK A01 T02000194  RH  097%=      5-min Rain = 0
KMC5 130953Z 04007KT 20/20 A3002 RMK A01 T02000195  RH  097%=      5-min Rain = 0
KMC5 130954Z 03008KT 20/20 A3002 RMK A01 T02000195  RH  097%=      5-min Rain = 0
KMC5 130955Z 04007KT 20/20 A3002 RMK A01 T02000195  RH  097%=      5-min Rain = 0
KMC5 130956Z 04007KT 20/20 A3002 RMK A01 T02000195  RH  097%=      5-min Rain = 0
KMC5 130957Z 04007KT 20/19 A3002 RMK A01 T02000194  RH  097%=      5-min Rain = 0
KMC5 130958Z 04007KT 20/19 A3002 RMK A01 T01990194  RH  097%=      5-min Rain = 0
KMC5 130959Z 04008KT 20/19 A3002 RMK A01 T01990194  RH  097%=      5-min Rain = 0
KMC5 131000Z 04008KT 20/20 A3002 RMK A01 T02000195  RH  097%=      5-min Rain = 0
KMC5 131001Z 03008KT 20/19 A3002 RMK A01 T01990194  RH  097%=      5-min Rain = 0
KMC5 131002Z 03008KT 20/19 A3002 RMK A01 T01990194  RH  097%=      5-min Rain = 0
KMC5 131003Z 03007KT 20/20 A3002 RMK A01 T02000195  RH  097%=      5-min Rain = 0
KMC5 131004Z 03007KT 20/19 A3002 RMK A01 T01990194  RH  097%=      5-min Rain = 0
KMC5 131005Z 03007KT 20/19 A3002 RMK A01 T01990194  RH  097%=      5-min Rain = 0
KMC5 131006Z 03007KT 20/19 A3002 RMK A01 T01990194  RH  097%=      5-min Rain = 0
KMC5 131007Z 03007KT 20/19 A3002 RMK A01 T01990194  RH  097%=      5-min Rain = 0
KMC5 131008Z 03008KT 20/19 A3002 RMK A01 T01980194  RH  097%=      5-min Rain = 0
KMC5 131009Z 02008KT 20/19 A3002 RMK A01 T01980194  RH  097%=      5-min Rain = 0
KMC5 131010Z 02008KT 20/19 A3002 RMK A01 T01980194  RH  097%=      5-min Rain = 0
KMC5 131011Z 01008KT 20/19 A3002 RMK A01 T01980193  RH  097%=      5-min Rain = 0
KMC5 131012Z 01008KT 20/19 A3002 RMK A01 T01980193  RH  097%=      5-min Rain = 0
KMC5 131013Z 01007KT 20/19 A3002 RMK A01 T01980194  RH  097%=      5-min Rain = 0
KMC5 131014Z 02007KT 20/19 A3002 RMK A01 T01980193  RH  097%=      5-min Rain = 0
KMC5 131015Z 02007KT 20/19 A3002 RMK A01 T01980193  RH  097%=      5-min Rain = 0
KMC5 131016Z 02008KT 20/19 A3002 RMK A01 T01980193  RH  097%=      5-min Rain = 0
KMC5 131017Z 01008KT 20/19 A3002 RMK A01 T01980193  RH  097%=      5-min Rain = 0
KMC5 131018Z 01008KT 20/19 A3002 RMK A01 T01980193  RH  097%=      5-min Rain = 0
KMC5 131019Z 01008KT 20/19 A3002 RMK A01 T01970193  RH  097%=      5-min Rain = 0
KMC5 131020Z 01008KT 20/19 A3002 RMK A01 T01970193  RH  097%=      5-min Rain = 0
KMC5 131021Z 01007KT 20/19 A3002 RMK A01 T01970193  RH  097%=      5-min Rain = 0
KMC5 131022Z 01007KT 20/19 A3003 RMK A01 T01970193  RH  097%=      5-min Rain = 0
KMC5 131023Z 01008KT 20/19 A3003 RMK A01 T01970193  RH  097%=      5-min Rain = 0
KMC5 131024Z 01008KT 20/19 A3003 RMK A01 T01970193  RH  097%=      5-min Rain = 0
KMC5 131025Z 01008KT 20/19 A3003 RMK A01 T01970193  RH  097%=      5-min Rain = 0
KMC5 131026Z 01008KT 20/19 A3003 RMK A01 T01980193  RH  097%=      5-min Rain = 0
KMC5 131027Z 01007KT 20/19 A3003 RMK A01 T01970193  RH  097%=      5-min Rain = 0
KMC5 131028Z 01007KT 20/19 A3003 RMK A01 T01970193  RH  097%=      5-min Rain = 0
KMC5 131029Z 02007KT 20/19 A3003 RMK A01 T01970193  RH  097%=      5-min Rain = 0
KMC5 131030Z 02007KT 20/19 A3003 RMK A01 T01970193  RH  097%=      5-min Rain = 0
KMC5 131031Z 02007KT 20/19 A3003 RMK A01 T01970192  RH  097%=      5-min Rain = 0
KMC5 131032Z 02007KT 20/19 A3003 RMK A01 T01970193  RH  097%=      5-min Rain = 0
KMC5 131033Z 02007KT 20/19 A3003 RMK A01 T01960192  RH  097%=      5-min Rain = 0
KMC5 131034Z 02008KT 20/19 A3003 RMK A01 T01960192  RH  097%=      5-min Rain = 0
KMC5 131035Z 03008KT 20/19 A3003 RMK A01 T01960192  RH  097%=      5-min Rain = 0
KMC5 131036Z 03008KT 20/19 A3003 RMK A01 T01960192  RH  097%=      5-min Rain = 0
KMC5 131037Z 03008KT 20/19 A3003 RMK A01 T01960192  RH  097%=      5-min Rain = 0
KMC5 131038Z 02008KT 20/19 A3003 RMK A01 T01960192  RH  097%=      5-min Rain = 0
KMC5 131039Z 02007KT 20/19 A3003 RMK A01 T01960192  RH  097%=      5-min Rain = 0
KMC5 131040Z 02008KT 20/19 A3003 RMK A01 T01960192  RH  097%=      5-min Rain = 0
KMC5 131041Z 02008KT 20/19 A3003 RMK A01 T01960192  RH  097%=      5-min Rain = 0
KMC5 131042Z 02008KT 20/19 A3003 RMK A01 T01960192  RH  097%=      5-min Rain = 0
KMC5 131043Z 02008KT 20/19 A3003 RMK A01 T01960192  RH  097%=      5-min Rain = 0
KMC5 131044Z 02007KT 20/19 A3003 RMK A01 T01960192  RH  097%=      5-min Rain = 0
KMC5 131045Z 02007KT 20/19 A3003 RMK A01 T01960192  RH  097%=      5-min Rain = 0
KMC5 131046Z 02007KT 20/19 A3003 RMK A01 T01960192  RH  097%=      5-min Rain = 0
KMC5 131047Z 03007KT 20/19 A3003 RMK A01 T01960192  RH  097%=      5-min Rain = 0
KMC5 131048Z 02007KT 20/19 A3003 RMK A01 T01960192  RH  097%=      5-min Rain = 0
KMC5 131049Z 02007KT 20/19 A3003 RMK A01 T01960192  RH  097%=      5-min Rain = 0
KMC5 131050Z 02007KT 20/19 A3003 RMK A01 T01950191  RH  097%=      5-min Rain = 0
KMC5 131051Z 02007KT 20/19 A3003 RMK A01 T01950191  RH  097%=      5-min Rain = 0
KMC5 131052Z 02008KT 20/19 A3003 RMK A01 T01950191  RH  097%=      5-min Rain = 0
KMC5 131053Z 02008KT 20/19 A3004 RMK A01 T01950191  RH  097%=      5-min Rain = 0
KMC5 131054Z 02008KT 20/19 A3004 RMK A01 T01950191  RH  097%=      5-min Rain = 0
KMC5 131055Z 02008KT 19/19 A3004 RMK A01 T01940190  RH  097%=      5-min Rain = 0
KMC5 131056Z 02007KT 19/19 A3004 RMK A01 T01940190  RH  097%=      5-min Rain = 0
KMC5 131057Z 02007KT 19/19 A3004 RMK A01 T01940191  RH  098%=      5-min Rain = 0
KMC5 131058Z 02007KT 19/19 A3004 RMK A01 T01940191  RH  098%=      5-min Rain = 0
KMC5 131059Z 02007KT 20/19 A3004 RMK A01 T01950191  RH  098%=      5-min Rain = 0
KMC5 131100Z 03007KT 19/19 A3004 RMK A01 T01940191  RH  098%=      5-min Rain = 0
KMC5 131101Z 02007KT 19/19 A3004 RMK A01 T01940191  RH  098%=      5-min Rain = 0
KMC5 131102Z 02007KT 19/19 A3004 RMK A01 T01940191  RH  098%=      5-min Rain = 0
KMC5 131103Z 02007KT 20/19 A3004 RMK A01 T01950191  RH  098%=      5-min Rain = 0
KMC5 131104Z 03007KT 19/19 A3004 RMK A01 T01940191  RH  098%=      5-min Rain = 0
KMC5 131105Z 03007KT 20/19 A3005 RMK A01 T01950191  RH  098%=      5-min Rain = 0
KMC5 131106Z 03007KT 20/19 A3005 RMK A01 T01950191  RH  098%=      5-min Rain = 0
KMC5 131107Z 03007KT 20/19 A3005 RMK A01 T01950191  RH  098%=      5-min Rain = 0
KMC5 131108Z 03007KT 20/19 A3005 RMK A01 T01950191  RH  098%=      5-min Rain = 0
KMC5 131109Z 03007KT 20/19 A3005 RMK A01 T01950191  RH  098%=      5-min Rain = 0
KMC5 131110Z 03007KT 20/19 A3005 RMK A01 T01950191  RH  098%=      5-min Rain = 0
KMC5 131111Z 03006KT 19/19 A3005 RMK A01 T01940190  RH  098%=      5-min Rain = 0
KMC5 131112Z 04006KT 19/19 A3005 RMK A01 T01940190  RH  098%=      5-min Rain = 0
KMC5 131113Z 04006KT 19/19 A3005 RMK A01 T01940190  RH  098%=      5-min Rain = 0
KMC5 131114Z 03005KT 19/19 A3005 RMK A01 T01940190  RH  098%=      5-min Rain = 0
KMC5 131115Z 03006KT 19/19 A3005 RMK A01 T01940190  RH  098%=      5-min Rain = 0
KMC5 131116Z 03005KT 19/19 A3005 RMK A01 T01940190  RH  098%=      5-min Rain = 0
KMC5 131117Z 02005KT 19/19 A3005 RMK A01 T01940190  RH  098%=      5-min Rain = 0
KMC5 131118Z 02005KT 19/19 A3005 RMK A01 T01940190  RH  098%=      5-min Rain = 0
KMC5 131119Z 03006KT 19/19 A3005 RMK A01 T01940190  RH  098%=      5-min Rain = 0
KMC5 131120Z 03006KT 19/19 A3005 RMK A01 T01940191  RH  098%=      5-min Rain = 0
KMC5 131121Z 03006KT 19/19 A3005 RMK A01 T01940191  RH  098%=      5-min Rain = 0
KMC5 131122Z 02006KT 19/19 A3005 RMK A01 T01940190  RH  098%=      5-min Rain = 0
KMC5 131123Z 02005KT 19/19 A3005 RMK A01 T01940190  RH  098%=      5-min Rain = 0
KMC5 131124Z 01005KT 19/19 A3005 RMK A01 T01940190  RH  098%=      5-min Rain = 0
KMC5 131125Z 01005KT 19/19 A3005 RMK A01 T01940190  RH  098%=      5-min Rain = 0
KMC5 131126Z 01005KT 19/19 A3005 RMK A01 T01930190  RH  098%=      5-min Rain = 0
KMC5 131127Z 01005KT 19/19 A3005 RMK A01 T01930189  RH  098%=      5-min Rain = 0
KMC5 131128Z 01005KT 19/19 A3005 RMK A01 T01930189  RH  098%=      5-min Rain = 0
KMC5 131129Z 01005KT 19/19 A3005 RMK A01 T01930189  RH  098%=      5-min Rain = 0
KMC5 131130Z 01005KT 19/19 A3005 RMK A01 T01930189  RH  098%=      5-min Rain = 0
KMC5 131131Z 02005KT 19/19 A3005 RMK A01 T01930189  RH  098%=      5-min Rain = 0
KMC5 131132Z 02005KT 19/19 A3005 RMK A01 T01930189  RH  098%=      5-min Rain = 0
KMC5 131133Z 01005KT 19/19 A3006 RMK A01 T01930189  RH  098%=      5-min Rain = 0
KMC5 131134Z 01006KT 19/19 A3006 RMK A01 T01930189  RH  098%=      5-min Rain = 0
KMC5 131135Z 01006KT 19/19 A3006 RMK A01 T01930189  RH  098%=      5-min Rain = 0
KMC5 131136Z 01006KT 19/19 A3006 RMK A01 T01930189  RH  098%=      5-min Rain = 0
KMC5 131137Z 01006KT 19/19 A3006 RMK A01 T01930189  RH  098%=      5-min Rain = 0
KMC5 131138Z 01006KT 19/19 A3006 RMK A01 T01930189  RH  098%=      5-min Rain = 0
KMC5 131139Z 02006KT 19/19 A3006 RMK A01 T01930189  RH  098%=      5-min Rain = 0
KMC5 131140Z 01005KT 19/19 A3006 RMK A01 T01930189  RH  098%=      5-min Rain = 0
KMC5 131141Z 01005KT 19/19 A3006 RMK A01 T01930189  RH  098%=      5-min Rain = 0
KMC5 131142Z 02006KT 19/19 A3006 RMK A01 T01930189  RH  098%=      5-min Rain = 0
KMC5 131143Z 02006KT 19/19 A3006 RMK A01 T01930189  RH  098%=      5-min Rain = 0
KMC5 131144Z 02007KT 19/19 A3006 RMK A01 T01930189  RH  098%=      5-min Rain = 0
KMC5 131145Z 01006KT 19/19 A3006 RMK A01 T01930189  RH  098%=      5-min Rain = 0
KMC5 131146Z 01006KT 19/19 A3006 RMK A01 T01930189  RH  098%=      5-min Rain = 0
KMC5 131147Z 01006KT 19/19 A3006 RMK A01 T01930189  RH  098%=      5-min Rain = 0
KMC5 131148Z 01005KT 19/19 A3006 RMK A01 T01930189  RH  098%=      5-min Rain = 0
KMC5 131149Z 01006KT 19/19 A3006 RMK A01 T01930189  RH  098%=      5-min Rain = 0
KMC5 131150Z 01006KT 19/19 A3006 RMK A01 T01930189  RH  098%=      5-min Rain = 0
KMC5 131151Z 00005KT 19/19 A3006 RMK A01 T01930189  RH  098%=      5-min Rain = 0
KMC5 131152Z 00004KT 19/19 A3006 RMK A01 T01930189  RH  098%=      5-min Rain = 0
KMC5 131153Z 01005KT 19/19 A3006 RMK A01 T01930189  RH  098%=      5-min Rain = 0
KMC5 131154Z 01005KT 19/19 A3006 RMK A01 T01930189  RH  098%=      5-min Rain = 0
KMC5 131155Z 01005KT 19/19 A3006 RMK A01 T01930189  RH  098%=      5-min Rain = 0
KMC5 131156Z 01006KT 19/19 A3006 RMK A01 T01930189  RH  098%=      5-min Rain = 0
KMC5 131157Z 02006KT 19/19 A3006 RMK A01 T01920189  RH  098%=      5-min Rain = 0
KMC5 131158Z 02006KT 19/19 A3006 RMK A01 T01920189  RH  098%=      5-min Rain = 0
KMC5 131159Z 02005KT 19/19 A3006 RMK A01 T01920188  RH  098%=      5-min Rain = 0
KMC5 131200Z 02006KT 19/19 A3006 RMK A01 T01920189  RH  098%=      5-min Rain = 0
KMC5 131201Z 02005KT 19/19 A3006 RMK A01 T01920189  RH  098%=      5-min Rain = 0
KMC5 131202Z 03005KT 19/19 A3006 RMK A01 T01920189  RH  098%=      5-min Rain = 0
KMC5 131203Z 02004KT 19/19 A3006 RMK A01 T01930189  RH  098%=      5-min Rain = 0
KMC5 131204Z 01004KT 19/19 A3006 RMK A01 T01930189  RH  098%=      5-min Rain = 0
KMC5 131205Z 02004KT 19/19 A3006 RMK A01 T01930189  RH  098%=      5-min Rain = 0
KMC5 131206Z 02004KT 19/19 A3006 RMK A01 T01930189  RH  098%=      5-min Rain = 0
KMC5 131207Z 03004KT 19/19 A3006 RMK A01 T01930189  RH  098%=      5-min Rain = 0
KMC5 131208Z 03005KT 19/19 A3007 RMK A01 T01930190  RH  098%=      5-min Rain = 0
KMC5 131209Z 02005KT 19/19 A3007 RMK A01 T01930190  RH  098%=      5-min Rain = 0
KMC5 131210Z 02004KT 19/19 A3007 RMK A01 T01930190  RH  098%=      5-min Rain = 0
KMC5 131211Z 01004KT 19/19 A3007 RMK A01 T01930190  RH  098%=      5-min Rain = 0
KMC5 131212Z 01005KT 19/19 A3007 RMK A01 T01930190  RH  098%=      5-min Rain = 0
KMC5 131213Z 00004KT 19/19 A3007 RMK A01 T01930190  RH  098%=      5-min Rain = 0
KMC5 131214Z 00005KT 19/19 A3007 RMK A01 T01930190  RH  098%=      5-min Rain = 0
KMC5 131215Z 01004KT 19/19 A3007 RMK A01 T01930190  RH  098%=      5-min Rain = 0
KMC5 131216Z 01005KT 19/19 A3007 RMK A01 T01930190  RH  098%=      5-min Rain = 0
KMC5 131217Z 01004KT 19/19 A3007 RMK A01 T01930190  RH  098%=      5-min Rain = 0
KMC5 131218Z 36004KT 19/19 A3007 RMK A01 T01930190  RH  098%=      5-min Rain = 0
KMC5 131219Z 35004KT 19/19 A3007 RMK A01 T01930190  RH  098%=      5-min Rain = 0
KMC5 131220Z 36004KT 19/19 A3007 RMK A01 T01930189  RH  098%=      5-min Rain = 0
KMC5 131221Z 00004KT 19/19 A3007 RMK A01 T01930190  RH  098%=      5-min Rain = 0
KMC5 131222Z 36004KT 19/19 A3007 RMK A01 T01930190  RH  098%=      5-min Rain = 0
KMC5 131223Z 36004KT 19/19 A3007 RMK A01 T01930190  RH  098%=      5-min Rain = 0
KMC5 131224Z 36005KT 19/19 A3007 RMK A01 T01940190  RH  098%=      5-min Rain = 0
KMC5 131225Z 00005KT 19/19 A3007 RMK A01 T01940190  RH  098%=      5-min Rain = 0
KMC5 131226Z 35004KT 19/19 A3007 RMK A01 T01940190  RH  098%=      5-min Rain = 0
KMC5 131227Z 36005KT 19/19 A3007 RMK A01 T01940190  RH  098%=      5-min Rain = 0
KMC5 131228Z 35006KT 19/19 A3007 RMK A01 T01940190  RH  098%=      5-min Rain = 0
KMC5 131229Z 35005KT 19/19 A3007 RMK A01 T01940190  RH  098%=      5-min Rain = 0
KMC5 131230Z 35006KT 19/19 A3007 RMK A01 T01940191  RH  098%=      5-min Rain = 0
KMC5 131231Z 35006KT 19/19 A3007 RMK A01 T01940191  RH  098%=      5-min Rain = 0
KMC5 131232Z 34006KT 19/19 A3007 RMK A01 T01940190  RH  098%=      5-min Rain = 0
KMC5 131233Z 35005KT 19/19 A3007 RMK A01 T01940191  RH  098%=      5-min Rain = 0
KMC5 131234Z 35005KT 19/19 A3007 RMK A01 T01940191  RH  098%=      5-min Rain = 0
KMC5 131235Z 35006KT 19/19 A3008 RMK A01 T01940191  RH  098%=      5-min Rain = 0
KMC5 131236Z 35006KT 19/19 A3008 RMK A01 T01940191  RH  098%=      5-min Rain = 0
KMC5 131237Z 35006KT 19/19 A3008 RMK A01 T01940190  RH  098%=      5-min Rain = 0
KMC5 131238Z 34005KT 19/19 A3008 RMK A01 T01940191  RH  098%=      5-min Rain = 0
KMC5 131239Z 34007KT 19/19 A3008 RMK A01 T01940191  RH  098%=      5-min Rain = 0
KMC5 131240Z 34007KT 19/19 A3008 RMK A01 T01940190  RH  098%=      5-min Rain = 0
KMC5 131241Z 33007KT 19/19 A3008 RMK A01 T01940190  RH  098%=      5-min Rain = 0
KMC5 131242Z 34007KT 19/19 A3008 RMK A01 T01940190  RH  098%=      5-min Rain = 0
KMC5 131243Z 33006KT 19/19 A3008 RMK A01 T01940190  RH  098%=      5-min Rain = 0
KMC5 131244Z 33006KT 19/19 A3008 RMK A01 T01940190  RH  098%=      5-min Rain = 0
KMC5 131245Z 33006KT 19/19 A3008 RMK A01 T01940191  RH  098%=      5-min Rain = 0
KMC5 131246Z 34008KT 20/19 A3008 RMK A01 T01950191  RH  098%=      5-min Rain = 0
KMC5 131247Z 34007KT 19/19 A3008 RMK A01 T01940191  RH  098%=      5-min Rain = 0
KMC5 131248Z 34007KT 20/19 A3008 RMK A01 T01950191  RH  098%=      5-min Rain = 0
KMC5 131249Z 34007KT 20/19 A3008 RMK A01 T01950191  RH  098%=      5-min Rain = 0
KMC5 131250Z 33007KT 20/19 A3008 RMK A01 T01950191  RH  098%=      5-min Rain = 0
KMC5 131251Z 32007KT 20/19 A3008 RMK A01 T01950191  RH  097%=      5-min Rain = 0
KMC5 131252Z 32007KT 20/19 A3008 RMK A01 T01950191  RH  097%=      5-min Rain = 0
KMC5 131253Z 32007KT 20/19 A3008 RMK A01 T01950191  RH  097%=      5-min Rain = 0
KMC5 131254Z 32006KT 20/19 A3008 RMK A01 T01950191  RH  097%=      5-min Rain = 0
KMC5 131255Z 33007KT 20/19 A3008 RMK A01 T01950191  RH  097%=      5-min Rain = 0
KMC5 131256Z 34007KT 20/19 A3008 RMK A01 T01950191  RH  097%=      5-min Rain = 0
KMC5 131257Z 33007KT 20/19 A3008 RMK A01 T01950190  RH  097%=      5-min Rain = 0
KMC5 131258Z 33007KT 19/19 A3009 RMK A01 T01940190  RH  097%=      5-min Rain = 0
KMC5 131259Z 33007KT 19/19 A3009 RMK A01 T01940190  RH  097%=      5-min Rain = 0
KMC5 131300Z 33007KT 19/19 A3009 RMK A01 T01940190  RH  097%=      5-min Rain = 0
KMC5 131301Z 34007KT 19/19 A3009 RMK A01 T01940190  RH  097%=      5-min Rain = 0
KMC5 131302Z 34006KT 19/19 A3009 RMK A01 T01940190  RH  098%=      5-min Rain = 0
KMC5 131303Z 33005KT 19/19 A3009 RMK A01 T01940190  RH  098%=      5-min Rain = 0
KMC5 131304Z 33006KT 20/19 A3009 RMK A01 T01950191  RH  098%=      5-min Rain = 0
KMC5 131305Z 31005KT 20/19 A3009 RMK A01 T01960193  RH  098%=      5-min Rain = 0
KMC5 131306Z 32007KT 20/19 A3009 RMK A01 T01970194  RH  098%=      5-min Rain = 0
KMC5 131307Z 33006KT 20/19 A3009 RMK A01 T01980194  RH  098%=      5-min Rain = 0
KMC5 131308Z 33007KT 20/19 A3009 RMK A01 T01970194  RH  098%=      5-min Rain = 0
KMC5 131309Z 33007KT 20/19 A3009 RMK A01 T01960192  RH  097%=      5-min Rain = 0
KMC5 131310Z 33006KT 20/19 A3009 RMK A01 T01960192  RH  097%=      5-min Rain = 0
KMC5 131311Z 33007KT 20/19 A3009 RMK A01 T01960192  RH  098%=      5-min Rain = 0
KMC5 131312Z 33007KT 20/19 A3009 RMK A01 T01960192  RH  097%=      5-min Rain = 0
KMC5 131313Z 34007KT 20/19 A3009 RMK A01 T01960192  RH  097%=      5-min Rain = 0
KMC5 131314Z 35007KT 20/19 A3009 RMK A01 T01970192  RH  097%=      5-min Rain = 0
KMC5 131315Z 34006KT 20/19 A3009 RMK A01 T01960192  RH  097%=      5-min Rain = 0
KMC5 131316Z 34007KT 20/19 A3009 RMK A01 T01960192  RH  097%=      5-min Rain = 0
KMC5 131317Z 34008KT 20/19 A3009 RMK A01 T01960192  RH  097%=      5-min Rain = 0
KMC5 131318Z 33008KT 20/19 A3009 RMK A01 T01960191  RH  097%=      5-min Rain = 0
KMC5 131319Z 33008KT 20/19 A3009 RMK A01 T01960191  RH  097%=      5-min Rain = 0
KMC5 131320Z 33007KT 20/19 A3009 RMK A01 T01960192  RH  097%=      5-min Rain = 0
KMC5 131321Z 33006KT 20/19 A3009 RMK A01 T01970192  RH  097%=      5-min Rain = 0
KMC5 131322Z 33007KT 20/19 A3009 RMK A01 T01970192  RH  097%=      5-min Rain = 0
KMC5 131323Z 33006KT 20/19 A3009 RMK A01 T01980193  RH  097%=      5-min Rain = 0
KMC5 131324Z 33006KT 20/19 A301 RMK A01 T01990194  RH  097%=      5-min Rain = 0
KMC5 131325Z 32007KT 20/19 A301 RMK A01 T01990194  RH  097%=      5-min Rain = 0
KMC5 131326Z 33008KT 20/19 A301 RMK A01 T01980192  RH  096%=      5-min Rain = 0
KMC5 131327Z 32006KT 20/19 A301 RMK A01 T01980191  RH  096%=      5-min Rain = 0
KMC5 131328Z 33007KT 20/19 A301 RMK A01 T01970191  RH  096%=      5-min Rain = 0
KMC5 131329Z 33006KT 20/19 A301 RMK A01 T01970191  RH  096%=      5-min Rain = 0
KMC5 131330Z 33004KT 20/19 A301 RMK A01 T01970191  RH  096%=      5-min Rain = 0
KMC5 131331Z 33005KT 20/19 A301 RMK A01 T01980192  RH  096%=      5-min Rain = 0
KMC5 131332Z 33005KT 20/19 A301 RMK A01 T01980192  RH  096%=      5-min Rain = 0
KMC5 131333Z 33006KT 20/19 A301 RMK A01 T01980192  RH  096%=      5-min Rain = 0
KMC5 131334Z 33006KT 20/19 A301 RMK A01 T01980192  RH  096%=      5-min Rain = 0
KMC5 131335Z 32007KT 20/19 A301 RMK A01 T01980192  RH  096%=      5-min Rain = 0
KMC5 131336Z 32007KT 20/19 A301 RMK A01 T01990193  RH  097%=      5-min Rain = 0
KMC5 131337Z 32006KT 20/19 A301 RMK A01 T02000194  RH  097%=      5-min Rain = 0
KMC5 131338Z 33005KT 20/20 A301 RMK A01 T02010196  RH  097%=      5-min Rain = 0
KMC5 131339Z 34005KT 20/20 A301 RMK A01 T02010195  RH  096%=      5-min Rain = 0
KMC5 131340Z 34006KT 20/20 A301 RMK A01 T02020197  RH  097%=      5-min Rain = 0
KMC5 131341Z 33006KT 20/20 A301 RMK A01 T02020197  RH  096%=      5-min Rain = 0
KMC5 131342Z 32007KT 20/20 A301 RMK A01 T02020197  RH  097%=      5-min Rain = 0
KMC5 131343Z 32006KT 20/20 A301 RMK A01 T02020196  RH  096%=      5-min Rain = 0
KMC5 131344Z 33007KT 20/19 A301 RMK A01 T02010194  RH  096%=      5-min Rain = 0
KMC5 131345Z 32006KT 20/19 A301 RMK A01 T02000194  RH  096%=      5-min Rain = 0
KMC5 131346Z 33007KT 20/20 A301 RMK A01 T02010195  RH  096%=      5-min Rain = 0
KMC5 131347Z 33006KT 20/20 A301 RMK A01 T02020196  RH  096%=      5-min Rain = 0
KMC5 131348Z 33006KT 20/20 A301 RMK A01 T02030196  RH  096%=      5-min Rain = 0
KMC5 131349Z 34006KT 20/20 A301 RMK A01 T02040197  RH  096%=      5-min Rain = 0
KMC5 131350Z 35006KT 21/20 A301 RMK A01 T02060200  RH  096%=      5-min Rain = 0
KMC5 131351Z 35006KT 21/20 A301 RMK A01 T02070199  RH  095%=      5-min Rain = 0
KMC5 131352Z 34007KT 21/20 A301 RMK A01 T02080199  RH  095%=      5-min Rain = 0
KMC5 131353Z 35006KT 21/20 A301 RMK A01 T02070197  RH  094%=      5-min Rain = 0
KMC5 131354Z 36006KT 21/20 A301 RMK A01 T02070199  RH  095%=      5-min Rain = 0
KMC5 131355Z 00006KT 21/20 A3011 RMK A01 T02080197  RH  094%=      5-min Rain = 0
KMC5 131356Z 01007KT 21/20 A3011 RMK A01 T02080197  RH  094%=      5-min Rain = 0
KMC5 131357Z 00007KT 21/20 A3011 RMK A01 T02080196  RH  093%=      5-min Rain = 0
KMC5 131358Z 01007KT 21/20 A3011 RMK A01 T02080197  RH  093%=      5-min Rain = 0
KMC5 131359Z 00007KT 21/20 A3011 RMK A01 T02080197  RH  093%=      5-min Rain = 0
KMC5 131400Z 35007KT 21/20 A3011 RMK A01 T02090197  RH  093%=      5-min Rain = 0
KMC5 131401Z 36007KT 21/20 A3011 RMK A01 T02090198  RH  093%=      5-min Rain = 0
KMC5 131402Z 00006KT 21/20 A3011 RMK A01 T02100198  RH  093%=      5-min Rain = 0
KMC5 131403Z 36006KT 21/20 A3011 RMK A01 T02110197  RH  092%=      5-min Rain = 0
KMC5 131404Z 36007KT 21/20 A3011 RMK A01 T02110196  RH  091%=      5-min Rain = 0
KMC5 131405Z 36007KT 21/20 A3011 RMK A01 T02100196  RH  092%=      5-min Rain = 0
KMC5 131406Z 35007KT 21/20 A3011 RMK A01 T02080195  RH  092%=      5-min Rain = 0
KMC5 131407Z 35006KT 21/20 A3011 RMK A01 T02080196  RH  093%=      5-min Rain = 0
KMC5 131408Z 34006KT 21/20 A3011 RMK A01 T02080196  RH  093%=      5-min Rain = 0
KMC5 131409Z 34007KT 21/20 A3011 RMK A01 T02080196  RH  093%=      5-min Rain = 0
KMC5 131410Z 34007KT 21/20 A3011 RMK A01 T02080196  RH  092%=      5-min Rain = 0
KMC5 131411Z 33007KT 21/20 A3011 RMK A01 T02080196  RH  093%=      5-min Rain = 0
KMC5 131412Z 33007KT 21/20 A3011 RMK A01 T02080197  RH  093%=      5-min Rain = 0
KMC5 131413Z 33006KT 21/20 A3011 RMK A01 T02080197  RH  093%=      5-min Rain = 0
KMC5 131414Z 34006KT 21/20 A3011 RMK A01 T02080195  RH  092%=      5-min Rain = 0
KMC5 131415Z 34006KT 21/19 A3011 RMK A01 T02080194  RH  092%=      5-min Rain = 0
KMC5 131416Z 33006KT 21/19 A3011 RMK A01 T02080194  RH  092%=      5-min Rain = 0
KMC5 131417Z 34005KT 21/19 A3011 RMK A01 T02070194  RH  092%=      5-min Rain = 0
KMC5 131418Z 35005KT 21/20 A3011 RMK A01 T02090196  RH  092%=      5-min Rain = 0
KMC5 131419Z 35006KT 21/20 A3011 RMK A01 T02110196  RH  091%=      5-min Rain = 0
KMC5 131420Z 35005KT 21/19 A3011 RMK A01 T02110194  RH  090%=      5-min Rain = 0
KMC5 131421Z 35005KT 21/20 A3011 RMK A01 T02120196  RH  091%=      5-min Rain = 0
KMC5 131422Z 35005KT 21/20 A3011 RMK A01 T02130196  RH  090%=      5-min Rain = 0
KMC5 131423Z 35005KT 21/20 A3011 RMK A01 T02140196  RH  090%=      5-min Rain = 0
KMC5 131424Z 34006KT 22/20 A3011 RMK A01 T02160198  RH  090%=      5-min Rain = 0
KMC5 131425Z 34005KT 22/20 A3011 RMK A01 T02160195  RH  088%=      5-min Rain = 0
KMC5 131426Z 35005KT 22/20 A3011 RMK A01 T02150196  RH  089%=      5-min Rain = 0
KMC5 131427Z 35005KT 22/19 A3011 RMK A01 T02150190  RH  086%=      5-min Rain = 0
KMC5 131428Z 34005KT 22/19 A3011 RMK A01 T02150191  RH  086%=      5-min Rain = 0
KMC5 131429Z 35004KT 22/19 A3011 RMK A01 T02150194  RH  088%=      5-min Rain = 0
KMC5 131430Z 35004KT 22/20 A3011 RMK A01 T02170195  RH  087%=      5-min Rain = 0
KMC5 131431Z 35005KT 22/20 A3011 RMK A01 T02180195  RH  087%=      5-min Rain = 0
KMC5 131432Z 35005KT 22/19 A3011 RMK A01 T02180193  RH  086%=      5-min Rain = 0
KMC5 131433Z 35004KT 22/20 A3011 RMK A01 T02190196  RH  087%=      5-min Rain = 0
KMC5 131434Z 35005KT 22/20 A3011 RMK A01 T02200196  RH  086%=      5-min Rain = 0
KMC5 131435Z 35003KT 22/20 A3012 RMK A01 T02200196  RH  086%=      5-min Rain = 0
KMC5 131436Z 34005KT 22/20 A3012 RMK A01 T02220197  RH  086%=      5-min Rain = 0
KMC5 131437Z 34005KT 22/20 A3012 RMK A01 T02240196  RH  084%=      5-min Rain = 0
KMC5 131438Z 34006KT 22/20 A3012 RMK A01 T02230195  RH  084%=      5-min Rain = 0
KMC5 131439Z 33006KT 22/20 A3012 RMK A01 T02230195  RH  084%=      5-min Rain = 0
KMC5 131440Z 34005KT 22/19 A3012 RMK A01 T02230194  RH  084%=      5-min Rain = 0
KMC5 131441Z 34004KT 22/19 A3012 RMK A01 T02230194  RH  084%=      5-min Rain = 0
KMC5 131442Z 33004KT 23/20 A3012 RMK A01 T02250196  RH  083%=      5-min Rain = 0
KMC5 131443Z 33004KT 23/20 A3012 RMK A01 T02270199  RH  084%=      5-min Rain = 0
KMC5 131444Z 33005KT 23/19 A3012 RMK A01 T02290194  RH  081%=      5-min Rain = 0
KMC5 131445Z 32005KT 23/19 A3012 RMK A01 T02290193  RH  080%=      5-min Rain = 0
KMC5 131446Z 32004KT 23/19 A3012 RMK A01 T02290193  RH  080%=      5-min Rain = 0
KMC5 131447Z 32004KT 23/19 A3012 RMK A01 T02290192  RH  080%=      5-min Rain = 0
KMC5 131448Z 31004KT 23/20 A3012 RMK A01 T02290197  RH  082%=      5-min Rain = 0
KMC5 131449Z 31005KT 23/20 A3012 RMK A01 T02310199  RH  082%=      5-min Rain = 0
KMC5 131450Z 32004KT 23/20 A3012 RMK A01 T02320197  RH  081%=      5-min Rain = 0
KMC5 131451Z 33005KT 23/20 A3012 RMK A01 T02330199  RH  081%=      5-min Rain = 0
KMC5 131452Z 33005KT 23/20 A3012 RMK A01 T02340198  RH  080%=      5-min Rain = 0
KMC5 131453Z 33005KT 24/20 A3012 RMK A01 T02350197  RH  079%=      5-min Rain = 0
KMC5 131454Z 32004KT 24/20 A3012 RMK A01 T02350203  RH  082%=      5-min Rain = 0
KMC5 131455Z 33005KT 24/20 A3012 RMK A01 T02360202  RH  081%=      5-min Rain = 0
KMC5 131456Z 34005KT 24/20 A3012 RMK A01 T02360200  RH  080%=      5-min Rain = 0
KMC5 131457Z 34006KT 23/20 A3012 RMK A01 T02340201  RH  082%=      5-min Rain = 0
KMC5 131458Z 34007KT 24/20 A3012 RMK A01 T02350199  RH  081%=      5-min Rain = 0
KMC5 131459Z 34007KT 24/20 A3012 RMK A01 T02360199  RH  080%=      5-min Rain = 0
KMC5 131500Z 33005KT 24/20 A3012 RMK A01 T02360199  RH  079%=      5-min Rain = 0
KMC5 131501Z 32006KT 24/20 A3012 RMK A01 T02370200  RH  080%=      5-min Rain = 0
KMC5 131502Z 33005KT 24/20 A3012 RMK A01 T02370200  RH  079%=      5-min Rain = 0
KMC5 131503Z 35007KT 24/20 A3012 RMK A01 T02380200  RH  079%=      5-min Rain = 0
KMC5 131504Z 34007KT 24/20 A3012 RMK A01 T02400201  RH  079%=      5-min Rain = 0
KMC5 131505Z 34008KT 24/20 A3012 RMK A01 T02410202  RH  079%=      5-min Rain = 0
KMC5 131506Z 35007KT 24/20 A3012 RMK A01 T02400202  RH  079%=      5-min Rain = 0
KMC5 131507Z 34008KT 24/20 A3012 RMK A01 T02400201  RH  079%=      5-min Rain = 0
KMC5 131508Z 34008KT 24/20 A3012 RMK A01 T02420199  RH  077%=      5-min Rain = 0
KMC5 131509Z 34007KT 24/20 A3012 RMK A01 T02430200  RH  077%=      5-min Rain = 0
KMC5 131510Z 35007KT 24/20 A3012 RMK A01 T02440199  RH  076%=      5-min Rain = 0
KMC5 131511Z 36007KT 24/20 A3012 RMK A01 T02440199  RH  076%=      5-min Rain = 0
KMC5 131512Z 35009KT 24/20 A3012 RMK A01 T02440198  RH  075%=      5-min Rain = 0
KMC5 131513Z 35007KT 25/20 A3012 RMK A01 T02460196  RH  074%=      5-min Rain = 0
KMC5 131514Z 35007KT 25/20 A3012 RMK A01 T02460196  RH  074%=      5-min Rain = 0
KMC5 131515Z 36006KT 24/20 A3012 RMK A01 T02440197  RH  075%=      5-min Rain = 0
KMC5 131516Z 35005KT 24/20 A3012 RMK A01 T02430198  RH  076%=      5-min Rain = 0
KMC5 131517Z 01007KT 25/20 A3012 RMK A01 T02450197  RH  075%=      5-min Rain = 0
KMC5 131518Z 01007KT 25/20 A3012 RMK A01 T02470197  RH  074%=      5-min Rain = 0
KMC5 131519Z 36006KT 25/19 A3012 RMK A01 T02480193  RH  072%=      5-min Rain = 0
KMC5 131520Z 35007KT 25/20 A3012 RMK A01 T02470195  RH  073%=      5-min Rain = 0
KMC5 131521Z 35007KT 25/19 A3012 RMK A01 T02470194  RH  072%=      5-min Rain = 0
KMC5 131522Z 35007KT 25/20 A3012 RMK A01 T02470196  RH  074%=      5-min Rain = 0
KMC5 131523Z 36009KT 25/20 A3012 RMK A01 T02480197  RH  073%=      5-min Rain = 0
KMC5 131524Z 36007KT 25/19 A3013 RMK A01 T02500194  RH  071%=      5-min Rain = 0
KMC5 131525Z 36006KT 25/19 A3013 RMK A01 T02500194  RH  071%=      5-min Rain = 0
KMC5 131526Z 35006KT 25/20 A3012 RMK A01 T02500195  RH  072%=      5-min Rain = 0
KMC5 131527Z 35008KT 25/20 A3012 RMK A01 T02500197  RH  072%=      5-min Rain = 0
KMC5 131528Z 34008KT 25/20 A3013 RMK A01 T02510197  RH  072%=      5-min Rain = 0
KMC5 131529Z 35007KT 25/20 A3013 RMK A01 T02490199  RH  074%=      5-min Rain = 0
KMC5 131530Z 36009KT 25/20 A3013 RMK A01 T02490199  RH  074%=      5-min Rain = 0
KMC5 131531Z 35009KT 25/20 A3013 RMK A01 T02500198  RH  073%=      5-min Rain = 0
KMC5 131532Z 36006KT 25/20 A3013 RMK A01 T02500196  RH  072%=      5-min Rain = 0
KMC5 131533Z 35006KT 25/20 A3013 RMK A01 T02500200  RH  074%=      5-min Rain = 0
KMC5 131534Z 35008KT 25/20 A3013 RMK A01 T02520201  RH  073%=      5-min Rain = 0
KMC5 131535Z 34007KT 25/20 A3013 RMK A01 T02540199  RH  072%=      5-min Rain = 0
KMC5 131536Z 35006KT 25/20 A3013 RMK A01 T02530199  RH  072%=      5-min Rain = 0
KMC5 131537Z 35007KT 25/20 A3013 RMK A01 T02530199  RH  072%=      5-min Rain = 0
KMC5 131538Z 36008KT 25/20 A3013 RMK A01 T02530198  RH  071%=      5-min Rain = 0
KMC5 131539Z 01008KT 26/20 A3013 RMK A01 T02560197  RH  070%=      5-min Rain = 0
KMC5 131540Z 01007KT 26/20 A3013 RMK A01 T02570196  RH  069%=      5-min Rain = 0
KMC5 131541Z 01008KT 26/20 A3013 RMK A01 T02570197  RH  070%=      5-min Rain = 0
KMC5 131542Z 02009KT 26/19 A3013 RMK A01 T02580194  RH  068%=      5-min Rain = 0
KMC5 131543Z 01008KT 26/20 A3013 RMK A01 T02600195  RH  068%=      5-min Rain = 0
KMC5 131544Z 00006KT 26/20 A3013 RMK A01 T02610198  RH  068%=      5-min Rain = 0
KMC5 131545Z 01004KT 26/20 A3013 RMK A01 T02620197  RH  067%=      5-min Rain = 0
KMC5 131546Z 00008KT 26/20 A3013 RMK A01 T02630196  RH  067%=      5-min Rain = 0
KMC5 131547Z 00008KT 26/20 A3013 RMK A01 T02630196  RH  067%=      5-min Rain = 0
KMC5 131548Z 01007KT 26/20 A3013 RMK A01 T02610198  RH  069%=      5-min Rain = 0
KMC5 131549Z 36005KT 26/20 A3013 RMK A01 T02610198  RH  068%=      5-min Rain = 0
KMC5 131550Z 36005KT 26/20 A3013 RMK A01 T02620200  RH  069%=      5-min Rain = 0
KMC5 131551Z 00008KT 26/20 A3013 RMK A01 T02640199  RH  068%=      5-min Rain = 0
KMC5 131552Z 01007KT 26/20 A3013 RMK A01 T02630199  RH  068%=      5-min Rain = 0
KMC5 131553Z 01007KT 26/20 A3013 RMK A01 T02620198  RH  068%=      5-min Rain = 0
KMC5 131554Z 35008KT 26/20 A3013 RMK A01 T02610199  RH  069%=      5-min Rain = 0
KMC5 131555Z 01007KT 26/20 A3013 RMK A01 T02620199  RH  069%=      5-min Rain = 0
KMC5 131556Z 01008KT 26/20 A3013 RMK A01 T02630198  RH  067%=      5-min Rain = 0
KMC5 131557Z 02007KT 26/20 A3013 RMK A01 T02640196  RH  066%=      5-min Rain = 0
KMC5 131558Z 02006KT 26/20 A3013 RMK A01 T02640196  RH  066%=      5-min Rain = 0
KMC5 131559Z 01007KT 27/20 A3013 RMK A01 T02650196  RH  066%=      5-min Rain = 0
KMC5 131600Z 00006KT 27/20 A3013 RMK A01 T02680197  RH  065%=      5-min Rain = 0
KMC5 131601Z 35008KT 27/20 A3013 RMK A01 T02700201  RH  066%=      5-min Rain = 0
KMC5 131602Z 00010KT 27/20 A3013 RMK A01 T02710198  RH  065%=      5-min Rain = 0
KMC5 131603Z 01008KT 27/20 A3013 RMK A01 T02700197  RH  064%=      5-min Rain = 0
KMC5 131604Z 02010KT 27/19 A3013 RMK A01 T02700193  RH  063%=      5-min Rain = 0
KMC5 131605Z 36009KT 27/19 A3013 RMK A01 T02700193  RH  063%=      5-min Rain = 0
KMC5 131606Z 01009KT 27/20 A3013 RMK A01 T02720196  RH  063%=      5-min Rain = 0
KMC5 131607Z 02009KT 27/19 A3013 RMK A01 T02730193  RH  061%=      5-min Rain = 0
KMC5 131608Z 02009KT 27/19 A3013 RMK A01 T02700193  RH  063%=      5-min Rain = 0
KMC5 131609Z 02006KT 27/20 A3013 RMK A01 T02690197  RH  064%=      5-min Rain = 0
KMC5 131610Z 01005KT 27/20 A3013 RMK A01 T02710199  RH  065%=      5-min Rain = 0
KMC5 131611Z 02007KT 28/20 A3013 RMK A01 T02750199  RH  063%=      5-min Rain = 0
KMC5 131612Z 02010KT 28/20 A3013 RMK A01 T02750195  RH  062%=      5-min Rain = 0
KMC5 131613Z 03007KT 27/19 A3013 RMK A01 T02740191  RH  061%=      5-min Rain = 0
KMC5 131614Z 02010KT 27/19 A3013 RMK A01 T02710194  RH  063%=      5-min Rain = 0
KMC5 131615Z 36009KT 27/19 A3013 RMK A01 T02720192  RH  062%=      5-min Rain = 0
KMC5 131616Z 02009KT 28/19 A3013 RMK A01 T02750194  RH  061%=      5-min Rain = 0
KMC5 131617Z 01009KT 28/19 A3013 RMK A01 T02760192  RH  060%=      5-min Rain = 0
KMC5 131618Z 01007KT 28/19 A3013 RMK A01 T02750193  RH  061%=      5-min Rain = 0
KMC5 131619Z 02008KT 28/19 A3013 RMK A01 T02750194  RH  061%=      5-min Rain = 0
KMC5 131620Z 02009KT 27/19 A3013 RMK A01 T02740192  RH  061%=      5-min Rain = 0
KMC5 131621Z 01011KT 27/19 A3013 RMK A01 T02740193  RH  061%=      5-min Rain = 0
KMC5 131622Z 02011KT 28/19 A3013 RMK A01 T02750191  RH  060%=      5-min Rain = 0
KMC5 131623Z 01011KT 28/19 A3013 RMK A01 T02760192  RH  060%=      5-min Rain = 0
KMC5 131624Z 36008KT 28/20 A3013 RMK A01 T02760195  RH  061%=      5-min Rain = 0
KMC5 131625Z 36009KT 28/19 A3013 RMK A01 T02760194  RH  061%=      5-min Rain = 0
KMC5 131626Z 36009KT 28/19 A3013 RMK A01 T02770194  RH  061%=      5-min Rain = 0
KMC5 131627Z 36009KT 28/19 A3013 RMK A01 T02760193  RH  061%=      5-min Rain = 0
KMC5 131628Z 00009KT 28/20 A3013 RMK A01 T02760196  RH  062%=      5-min Rain = 0
KMC5 131629Z 01007KT 28/19 A3013 RMK A01 T02760192  RH  060%=      5-min Rain = 0
KMC5 131630Z 02009KT 27/20 A3013 RMK A01 T02730195  RH  062%=      5-min Rain = 0
KMC5 131631Z 01011KT 28/19 A3013 RMK A01 T02760192  RH  060%=      5-min Rain = 0
KMC5 131632Z 00011KT 28/19 A3013 RMK A01 T02760191  RH  060%=      5-min Rain = 0
KMC5 131633Z 36010KT 28/19 A3013 RMK A01 T02760193  RH  061%=      5-min Rain = 0
KMC5 131634Z 01010KT 28/20 A3013 RMK A01 T02750195  RH  061%=      5-min Rain = 0
KMC5 131635Z 01011KT 28/20 A3013 RMK A01 T02770196  RH  061%=      5-min Rain = 0
KMC5 131636Z 02009KT 28/20 A3013 RMK A01 T02790196  RH  060%=      5-min Rain = 0
KMC5 131637Z 03008KT 28/20 A3013 RMK A01 T02790195  RH  060%=      5-min Rain = 0
KMC5 131638Z 02007KT 28/20 A3013 RMK A01 T02790196  RH  061%=      5-min Rain = 0
KMC5 131639Z 01009KT 28/19 A3013 RMK A01 T02800194  RH  060%=      5-min Rain = 0
KMC5 131640Z 00011KT 28/19 A3013 RMK A01 T02800194  RH  059%=      5-min Rain = 0
KMC5 131641Z 01010KT 28/19 A3013 RMK A01 T02800193  RH  059%=      5-min Rain = 0
KMC5 131642Z 01009KT 28/20 A3013 RMK A01 T02790196  RH  060%=      5-min Rain = 0
KMC5 131643Z 35010KT 28/19 A3013 RMK A01 T02810193  RH  059%=      5-min Rain = 0
KMC5 131644Z 00008KT 28/19 A3013 RMK A01 T02800194  RH  059%=      5-min Rain = 0
KMC5 131645Z 01007KT 28/20 A3013 RMK A01 T02810197  RH  060%=      5-min Rain = 0
KMC5 131646Z 03006KT 28/20 A3013 RMK A01 T02840197  RH  059%=      5-min Rain = 0
KMC5 131647Z 02008KT 29/20 A3013 RMK A01 T02850196  RH  059%=      5-min Rain = 0
KMC5 131648Z 01009KT 29/19 A3013 RMK A01 T02860194  RH  058%=      5-min Rain = 0
KMC5 131649Z 01009KT 29/19 A3013 RMK A01 T02850193  RH  057%=      5-min Rain = 0
KMC5 131650Z 02006KT 28/19 A3013 RMK A01 T02830193  RH  058%=      5-min Rain = 0
KMC5 131651Z 03008KT 28/20 A3013 RMK A01 T02820197  RH  060%=      5-min Rain = 0
KMC5 131652Z 03012KT 29/20 A3013 RMK A01 T02850195  RH  058%=      5-min Rain = 0
KMC5 131653Z 03012KT 29/19 A3013 RMK A01 T02860194  RH  057%=      5-min Rain = 0
KMC5 131654Z 04010KT 29/20 A3013 RMK A01 T02870196  RH  058%=      5-min Rain = 0
KMC5 131655Z 03006KT 29/20 A3013 RMK A01 T02860195  RH  058%=      5-min Rain = 0
KMC5 131656Z 04005KT 29/20 A3013 RMK A01 T02850200  RH  060%=      5-min Rain = 0
KMC5 131657Z 02009KT 29/19 A3013 RMK A01 T02890194  RH  057%=      5-min Rain = 0
KMC5 131658Z 02007KT 29/19 A3013 RMK A01 T02900194  RH  056%=      5-min Rain = 0
KMC5 131659Z 01008KT 29/19 A3013 RMK A01 T02890193  RH  056%=      5-min Rain = 0
KMC5 131700Z 02009KT 29/19 A3013 RMK A01 T02860194  RH  058%=      5-min Rain = 0
KMC5 131701Z 02009KT 29/19 A3013 RMK A01 T02850194  RH  058%=      5-min Rain = 0
KMC5 131702Z 03008KT 29/19 A3013 RMK A01 T02870194  RH  057%=      5-min Rain = 0
KMC5 131703Z 02006KT 29/20 A3013 RMK A01 T02880195  RH  057%=      5-min Rain = 0
KMC5 131704Z 04009KT 29/19 A3013 RMK A01 T02880192  RH  056%=      5-min Rain = 0
KMC5 131705Z 04008KT 29/19 A3013 RMK A01 T02870192  RH  057%=      5-min Rain = 0
KMC5 131706Z 05009KT 29/19 A3013 RMK A01 T02880192  RH  056%=      5-min Rain = 0
KMC5 131707Z 05007KT 29/19 A3013 RMK A01 T02920187  RH  053%=      5-min Rain = 0
KMC5 131708Z 03010KT 29/19 A3013 RMK A01 T02910194  RH  056%=      5-min Rain = 0
KMC5 131709Z 03009KT 29/19 A3013 RMK A01 T02910192  RH  055%=      5-min Rain = 0
KMC5 131710Z 03010KT 29/19 A3013 RMK A01 T02880194  RH  057%=      5-min Rain = 0
KMC5 131711Z 02010KT 29/19 A3013 RMK A01 T02920193  RH  055%=      5-min Rain = 0
KMC5 131712Z 01007KT 29/19 A3013 RMK A01 T02920192  RH  055%=      5-min Rain = 0
KMC5 131713Z 07006KT 29/19 A3013 RMK A01 T02900191  RH  055%=      5-min Rain = 0
KMC5 131714Z 06008KT 29/19 A3013 RMK A01 T02940185  RH  052%=      5-min Rain = 0
KMC5 131715Z 04010KT 30/19 A3013 RMK A01 T02970190  RH  053%=      5-min Rain = 0
KMC5 131716Z 05009KT 30/19 A3013 RMK A01 T02970190  RH  052%=      5-min Rain = 0
KMC5 131717Z 04009KT 29/19 A3013 RMK A01 T02940188  RH  053%=      5-min Rain = 0
KMC5 131718Z 05010KT 29/19 A3013 RMK A01 T02930187  RH  053%=      5-min Rain = 0
KMC5 131719Z 07010KT 30/18 A3013 RMK A01 T02950180  RH  050%=      5-min Rain = 0
KMC5 131720Z 05011KT 30/18 A3013 RMK A01 T02950184  RH  051%=      5-min Rain = 0
KMC5 131721Z 04011KT 30/19 A3013 RMK A01 T02950186  RH  052%=      5-min Rain = 0
KMC5 131722Z 03012KT 30/19 A3013 RMK A01 T02950185  RH  052%=      5-min Rain = 0
KMC5 131723Z 03012KT 29/19 A3013 RMK A01 T02930185  RH  052%=      5-min Rain = 0
KMC5 131724Z 02012KT 29/18 A3013 RMK A01 T02930183  RH  052%=      5-min Rain = 0
KMC5 131725Z 04010KT 30/19 A3013 RMK A01 T02950186  RH  052%=      5-min Rain = 0
KMC5 131726Z 06008KT 30/19 A3014 RMK A01 T02960189  RH  053%=      5-min Rain = 0
KMC5 131727Z 07005KT 30/19 A3014 RMK A01 T02950188  RH  052%=      5-min Rain = 0
KMC5 131728Z 06008G15KT 29/19 A3014 RMK A01 T02930189  RH  053%=      5-min Rain = 0
KMC5 131729Z 05013KT 30/18 A3013 RMK A01 T02960184  RH  051%=      5-min Rain = 0
KMC5 131730Z 05011KT 30/18 A3014 RMK A01 T02980184  RH  050%=      5-min Rain = 0
KMC5 131731Z 05010KT 30/18 A3014 RMK A01 T02980183  RH  050%=      5-min Rain = 0
KMC5 131732Z 04010KT 30/18 A3013 RMK A01 T02970184  RH  051%=      5-min Rain = 0
KMC5 131733Z 06011KT 30/19 A3013 RMK A01 T02960186  RH  052%=      5-min Rain = 0
KMC5 131734Z 07010KT 30/19 A3013 RMK A01 T02960185  RH  051%=      5-min Rain = 0
KMC5 131735Z 06009KT 30/19 A3013 RMK A01 T02970186  RH  052%=      5-min Rain = 0
KMC5 131736Z 05011KT 30/19 A3013 RMK A01 T02980187  RH  051%=      5-min Rain = 0
KMC5 131737Z 05010KT 30/18 A3013 RMK A01 T02990180  RH  049%=      5-min Rain = 0
KMC5 131738Z 04012KT 30/18 A3013 RMK A01 T02970179  RH  049%=      5-min Rain = 0
KMC5 131739Z 04012KT 30/18 A3013 RMK A01 T02990178  RH  049%=      5-min Rain = 0
KMC5 131740Z 05011KT 30/18 A3013 RMK A01 T03010178  RH  048%=      5-min Rain = 0
KMC5 131741Z 04011KT 30/18 A3013 RMK A01 T03000182  RH  049%=      5-min Rain = 0
KMC5 131742Z 05012KT 30/18 A3013 RMK A01 T03020182  RH  049%=      5-min Rain = 0
KMC5 131743Z 05010KT 30/18 A3013 RMK A01 T03000183  RH  049%=      5-min Rain = 0
KMC5 131744Z 05012KT 30/19 A3013 RMK A01 T03000185  RH  050%=      5-min Rain = 0
KMC5 131745Z 05012KT 30/18 A3013 RMK A01 T03010182  RH  049%=      5-min Rain = 0
KMC5 131746Z 04011G18KT 30/17 A3013 RMK A01 T03010174  RH  047%=      5-min Rain = 0
KMC5 131747Z 05013KT 30/17 A3013 RMK A01 T03010173  RH  046%=      5-min Rain = 0
KMC5 131748Z 06011KT 30/17 A3013 RMK A01 T03010173  RH  046%=      5-min Rain = 0
KMC5 131749Z 06012KT 30/18 A3013 RMK A01 T03010175  RH  047%=      5-min Rain = 0
KMC5 131750Z 07011KT 30/18 A3013 RMK A01 T02990175  RH  047%=      5-min Rain = 0
KMC5 131751Z 07008KT 30/18 A3014 RMK A01 T02970177  RH  049%=      5-min Rain = 0
KMC5 131752Z 05008KT 30/18 A3013 RMK A01 T02970178  RH  049%=      5-min Rain = 0
KMC5 131753Z 05006KT 30/18 A3013 RMK A01 T02960179  RH  049%=      5-min Rain = 0
KMC5 131754Z 05011KT 30/18 A3013 RMK A01 T02970181  RH  050%=      5-min Rain = 0
KMC5 131755Z 08010KT 30/18 A3013 RMK A01 T03010178  RH  048%=      5-min Rain = 0
KMC5 131756Z 08010KT 30/18 A3013 RMK A01 T03020177  RH  047%=      5-min Rain = 0
KMC5 131757Z 07011KT 30/18 A3013 RMK A01 T03020175  RH  046%=      5-min Rain = 0
KMC5 131758Z 05012KT 30/18 A3013 RMK A01 T03020175  RH  047%=      5-min Rain = 0
KMC5 131759Z 06013KT 30/17 A3013 RMK A01 T03000174  RH  047%=      5-min Rain = 0
KMC5 131800Z 07013KT 30/17 A3013 RMK A01 T03020172  RH  046%=      5-min Rain = 0
KMC5 131801Z 06013KT 30/17 A3013 RMK A01 T03040170  RH  045%=      5-min Rain = 0
KMC5 131802Z 06013KT 30/17 A3013 RMK A01 T03030173  RH  046%=      5-min Rain = 0
KMC5 131803Z 06012KT 30/17 A3013 RMK A01 T03030172  RH  045%=      5-min Rain = 0
KMC5 131804Z 08011KT 30/17 A3013 RMK A01 T03020172  RH  046%=      5-min Rain = 0
KMC5 131805Z 07009KT 30/17 A3013 RMK A01 T03000172  RH  046%=      5-min Rain = 0
KMC5 131806Z 08008KT 30/18 A3013 RMK A01 T02980175  RH  048%=      5-min Rain = 0
KMC5 131807Z 08009KT 30/18 A3013 RMK A01 T03010175  RH  047%=      5-min Rain = 0
KMC5 131808Z 08008KT 30/18 A3013 RMK A01 T03020175  RH  046%=      5-min Rain = 0
KMC5 131809Z 06010KT 30/18 A3013 RMK A01 T03020179  RH  048%=      5-min Rain = 0
KMC5 131810Z 04011KT 31/18 A3013 RMK A01 T03060175  RH  046%=      5-min Rain = 0
KMC5 131811Z 05011KT 31/17 A3013 RMK A01 T03080173  RH  044%=      5-min Rain = 0
KMC5 131812Z 04013KT 31/17 A3013 RMK A01 T03070172  RH  045%=      5-min Rain = 0
KMC5 131813Z 05012KT 31/17 A3013 RMK A01 T03060174  RH  045%=      5-min Rain = 0
KMC5 131814Z 05011KT 31/17 A3013 RMK A01 T03060168  RH  044%=      5-min Rain = 0
KMC5 131815Z 06009KT 30/17 A3013 RMK A01 T03030171  RH  045%=      5-min Rain = 0
KMC5 131816Z 05012KT 30/18 A3013 RMK A01 T03040179  RH  047%=      5-min Rain = 0
KMC5 131817Z 05012KT 31/18 A3013 RMK A01 T03090179  RH  046%=      5-min Rain = 0
KMC5 131818Z 05014KT 31/18 A3013 RMK A01 T03100177  RH  045%=      5-min Rain = 0
KMC5 131819Z 06012KT 31/18 A3013 RMK A01 T03050175  RH  046%=      5-min Rain = 0
KMC5 131820Z 06010KT 30/18 A3013 RMK A01 T03030178  RH  047%=      5-min Rain = 0
KMC5 131821Z 06010KT 30/18 A3012 RMK A01 T03040176  RH  046%=      5-min Rain = 0
KMC5 131822Z 03012KT 31/18 A3012 RMK A01 T03050177  RH  046%=      5-min Rain = 0
KMC5 131823Z 04013KT 31/18 A3012 RMK A01 T03080177  RH  045%=      5-min Rain = 0
KMC5 131824Z 05011KT 31/18 A3012 RMK A01 T03100177  RH  045%=      5-min Rain = 0
KMC5 131825Z 04013KT 31/17 A3012 RMK A01 T03110173  RH  044%=      5-min Rain = 0
KMC5 131826Z 05013KT 31/18 A3012 RMK A01 T03100177  RH  045%=      5-min Rain = 0
KMC5 131827Z 05013KT 31/17 A3012 RMK A01 T03110174  RH  044%=      5-min Rain = 0
KMC5 131828Z 06011KT 31/18 A3012 RMK A01 T03060175  RH  045%=      5-min Rain = 0
KMC5 131829Z 04014KT 31/17 A3012 RMK A01 T03060173  RH  045%=      5-min Rain = 0
KMC5 131830Z 04013KT 31/17 A3012 RMK A01 T03080173  RH  044%=      5-min Rain = 0
KMC5 131831Z 06012KT 31/17 A3012 RMK A01 T03080174  RH  044%=      5-min Rain = 0
KMC5 131832Z 05013KT 31/17 A3012 RMK A01 T03100173  RH  044%=      5-min Rain = 0
KMC5 131833Z 06010KT 31/17 A3012 RMK A01 T03100172  RH  044%=      5-min Rain = 0
KMC5 131834Z 07008KT 31/17 A3012 RMK A01 T03090172  RH  044%=      5-min Rain = 0
KMC5 131835Z 06009KT 31/17 A3012 RMK A01 T03060174  RH  045%=      5-min Rain = 0
KMC5 131836Z 07013KT 31/18 A3012 RMK A01 T03070177  RH  046%=      5-min Rain = 0
KMC5 131837Z 07012KT 31/18 A3012 RMK A01 T03090175  RH  045%=      5-min Rain = 0
KMC5 131838Z 07011KT 31/18 A3012 RMK A01 T03080175  RH  045%=      5-min Rain = 0
KMC5 131839Z 08012KT 31/17 A3012 RMK A01 T03070172  RH  044%=      5-min Rain = 0
KMC5 131840Z 08009KT 30/17 A3012 RMK A01 T03040172  RH  045%=      5-min Rain = 0
KMC5 131841Z 09009KT 30/17 A3012 RMK A01 T03040173  RH  045%=      5-min Rain = 0
KMC5 131842Z 08010G15KT 31/17 A3012 RMK A01 T03060170  RH  044%=      5-min Rain = 0
KMC5 131843Z 06010KT 30/17 A3012 RMK A01 T03040174  RH  046%=      5-min Rain = 0
KMC5 131844Z 08012KT 31/17 A3012 RMK A01 T03090172  RH  044%=      5-min Rain = 0
KMC5 131845Z 07010KT 31/18 A3012 RMK A01 T03110175  RH  044%=      5-min Rain = 0
KMC5 131846Z 06013KT 32/18 A3012 RMK A01 T03150177  RH  044%=      5-min Rain = 0
KMC5 131847Z 05010KT 31/18 A3012 RMK A01 T03130175  RH  044%=      5-min Rain = 0
KMC5 131848Z 04011KT 31/18 A3012 RMK A01 T03120175  RH  044%=      5-min Rain = 0
KMC5 131849Z 05010KT 31/17 A3012 RMK A01 T03090173  RH  044%=      5-min Rain = 0
KMC5 131850Z 05010KT 31/18 A3012 RMK A01 T03060176  RH  046%=      5-min Rain = 0
KMC5 131851Z 04010KT 31/17 A3012 RMK A01 T03070173  RH  044%=      5-min Rain = 0
KMC5 131852Z 04013KT 31/17 A3012 RMK A01 T03090174  RH  044%=      5-min Rain = 0
KMC5 131853Z 05009KT 31/18 A3012 RMK A01 T03090175  RH  045%=      5-min Rain = 0
KMC5 131854Z 04012KT 31/18 A3012 RMK A01 T03080177  RH  046%=      5-min Rain = 0
KMC5 131855Z 05011KT 31/18 A3012 RMK A01 T03090177  RH  045%=      5-min Rain = 0
KMC5 131856Z 06014KT 31/18 A3012 RMK A01 T03090177  RH  045%=      5-min Rain = 0
KMC5 131857Z 06014KT 31/18 A3012 RMK A01 T03100176  RH  045%=      5-min Rain = 0
KMC5 131858Z 05011KT 31/18 A3012 RMK A01 T03080176  RH  045%=      5-min Rain = 0
KMC5 131859Z 04010KT 31/18 A3012 RMK A01 T03060176  RH  046%=      5-min Rain = 0
KMC5 131900Z 06012KT 31/18 A3012 RMK A01 T03050176  RH  046%=      5-min Rain = 0
KMC5 131901Z 08012KT 31/17 A3012 RMK A01 T03050174  RH  045%=      5-min Rain = 0
KMC5 131902Z 08010KT 30/17 A3012 RMK A01 T03040174  RH  046%=      5-min Rain = 0
KMC5 131903Z 09010KT 30/18 A3012 RMK A01 T03040176  RH  046%=      5-min Rain = 0
KMC5 131904Z 07009KT 31/18 A3012 RMK A01 T03080177  RH  045%=      5-min Rain = 0
KMC5 131905Z 06011KT 31/18 A3012 RMK A01 T03110176  RH  045%=      5-min Rain = 0
KMC5 131906Z 07013G18KT 31/18 A3012 RMK A01 T03110179  RH  045%=      5-min Rain = 0
KMC5 131907Z 07016KT 31/18 A3012 RMK A01 T03140177  RH  044%=      5-min Rain = 0
KMC5 131908Z 07014KT 31/17 A3012 RMK A01 T03140174  RH  043%=      5-min Rain = 0
KMC5 131909Z 07012KT 31/17 A3012 RMK A01 T03100173  RH  044%=      5-min Rain = 0
KMC5 131910Z 08011KT 31/17 A3012 RMK A01 T03070172  RH  044%=      5-min Rain = 0
KMC5 131911Z 07014KT 31/17 A3012 RMK A01 T03070174  RH  045%=      5-min Rain = 0
KMC5 131912Z 07013KT 31/17 A3012 RMK A01 T03090171  RH  044%=      5-min Rain = 0
KMC5 131913Z 08012KT 31/17 A3012 RMK A01 T03080174  RH  045%=      5-min Rain = 0
KMC5 131914Z 08013KT 31/18 A3012 RMK A01 T03100175  RH  045%=      5-min Rain = 0
KMC5 131915Z 07010KT 31/18 A3012 RMK A01 T03120177  RH  044%=      5-min Rain = 0
KMC5 131916Z 09008KT 31/18 A3012 RMK A01 T03120178  RH  045%=      5-min Rain = 0
KMC5 131917Z 09011KT 31/18 A3012 RMK A01 T03120178  RH  045%=      5-min Rain = 0
KMC5 131918Z 08005G11KT 31/18 A3012 RMK A01 T03100176  RH  045%=      5-min Rain = 0
KMC5 131919Z 11006KT 31/18 A3012 RMK A01 T03070179  RH  046%=      5-min Rain = 0
KMC5 131920Z 08011KT 31/18 A3012 RMK A01 T03080179  RH  046%=      5-min Rain = 0
KMC5 131921Z 07013KT 31/18 A3012 RMK A01 T03100175  RH  045%=      5-min Rain = 0
KMC5 131922Z 06012KT 31/18 A3012 RMK A01 T03100177  RH  045%=      5-min Rain = 0
KMC5 131923Z 05010KT 31/17 A3012 RMK A01 T03100173  RH  044%=      5-min Rain = 0
KMC5 131924Z 04008KT 31/17 A3012 RMK A01 T03070174  RH  045%=      5-min Rain = 0
KMC5 131925Z 07011KT 31/18 A3012 RMK A01 T03070177  RH  046%=      5-min Rain = 0
KMC5 131926Z 08012KT 31/18 A3012 RMK A01 T03120175  RH  044%=      5-min Rain = 0
KMC5 131927Z 07007KT 31/17 A3012 RMK A01 T03120174  RH  044%=      5-min Rain = 0
KMC5 131928Z 09007KT 31/18 A3012 RMK A01 T03080179  RH  046%=      5-min Rain = 0
KMC5 131929Z 05005KT 31/18 A3012 RMK A01 T03080180  RH  046%=      5-min Rain = 0
KMC5 131930Z 06010KT 31/18 A3012 RMK A01 T03080181  RH  047%=      5-min Rain = 0
KMC5 131931Z 07011KT 31/18 A3012 RMK A01 T03110178  RH  045%=      5-min Rain = 0
KMC5 131932Z 07013KT 31/18 A3012 RMK A01 T03140180  RH  045%=      5-min Rain = 0
KMC5 131933Z 08012KT 32/18 A3012 RMK A01 T03150175  RH  043%=      5-min Rain = 0
KMC5 131934Z 08009KT 31/18 A3012 RMK A01 T03100175  RH  044%=      5-min Rain = 0
KMC5 131935Z 09013KT 31/18 A3012 RMK A01 T03090176  RH  045%=      5-min Rain = 0
KMC5 131936Z 10013KT 31/18 A3012 RMK A01 T03110177  RH  045%=      5-min Rain = 0
KMC5 131937Z 10010KT 32/18 A3012 RMK A01 T03160178  RH  044%=      5-min Rain = 0
KMC5 131938Z 09010KT 32/18 A3012 RMK A01 T03160176  RH  043%=      5-min Rain = 0
KMC5 131939Z 10008KT 31/17 A3012 RMK A01 T03130172  RH  043%=      5-min Rain = 0
KMC5 131940Z 10010KT 31/18 A3012 RMK A01 T03110176  RH  045%=      5-min Rain = 0
KMC5 131941Z 08010KT 31/17 A3012 RMK A01 T03130172  RH  043%=      5-min Rain = 0
KMC5 131942Z 07009KT 31/17 A3012 RMK A01 T03110173  RH  044%=      5-min Rain = 0
KMC5 131943Z 07014KT 31/17 A3012 RMK A01 T03100174  RH  044%=      5-min Rain = 0
KMC5 131944Z 06012KT 31/17 A3012 RMK A01 T03100173  RH  044%=      5-min Rain = 0
KMC5 131945Z 09010KT 31/17 A3012 RMK A01 T03100173  RH  044%=      5-min Rain = 0
KMC5 131946Z 09009KT 31/17 A3012 RMK A01 T03120169  RH  042%=      5-min Rain = 0
KMC5 131947Z 09008KT 31/17 A3012 RMK A01 T03090169  RH  043%=      5-min Rain = 0
KMC5 131948Z 06011KT 31/17 A3012 RMK A01 T03090174  RH  045%=      5-min Rain = 0
KMC5 131949Z 05013KT 31/18 A3012 RMK A01 T03090177  RH  045%=      5-min Rain = 0
KMC5 131950Z 06011KT 31/18 A3012 RMK A01 T03080178  RH  046%=      5-min Rain = 0
KMC5 131951Z 06010KT 31/18 A3012 RMK A01 T03070175  RH  045%=      5-min Rain = 0
KMC5 131952Z 07007KT 31/18 A3012 RMK A01 T03050175  RH  046%=      5-min Rain = 0
KMC5 131953Z 09008KT 31/17 A3012 RMK A01 T03050174  RH  045%=      5-min Rain = 0
KMC5 131954Z 07010KT 31/18 A3011 RMK A01 T03050177  RH  046%=      5-min Rain = 0
KMC5 131955Z 08011KT 31/18 A3011 RMK A01 T03070176  RH  046%=      5-min Rain = 0
KMC5 131956Z 08011KT 31/18 A3012 RMK A01 T03080177  RH  045%=      5-min Rain = 0
KMC5 131957Z 07006G11KT 31/18 A3011 RMK A01 T03080175  RH  045%=      5-min Rain = 0
KMC5 131958Z 09004KT 31/18 A3011 RMK A01 T03060175  RH  046%=      5-min Rain = 0
KMC5 131959Z 08010KT 31/18 A3011 RMK A01 T03060176  RH  046%=      5-min Rain = 0
KMC5 132000Z 07010KT 31/17 A3011 RMK A01 T03080173  RH  044%=      5-min Rain = 0
KMC5 132001Z 07011KT 31/18 A3011 RMK A01 T03080175  RH  045%=      5-min Rain = 0
KMC5 132002Z 08006KT 31/18 A3011 RMK A01 T03090175  RH  045%=      5-min Rain = 0
KMC5 132003Z 07007KT 31/17 A3011 RMK A01 T03080174  RH  045%=      5-min Rain = 0
KMC5 132004Z 07007KT 31/18 A3011 RMK A01 T03070175  RH  045%=      5-min Rain = 0
KMC5 132005Z 07009KT 31/18 A3011 RMK A01 T03070183  RH  048%=      5-min Rain = 0
KMC5 132006Z 09009KT 31/19 A3011 RMK A01 T03130185  RH  047%=      5-min Rain = 0
KMC5 132007Z 10011KT 31/18 A3011 RMK A01 T03140182  RH  045%=      5-min Rain = 0
KMC5 132008Z 08014KT 31/18 A3011 RMK A01 T03130182  RH  046%=      5-min Rain = 0
KMC5 132009Z 08012KT 31/18 A3011 RMK A01 T03100181  RH  046%=      5-min Rain = 0
KMC5 132010Z 09008KT 31/18 A3011 RMK A01 T03080179  RH  046%=      5-min Rain = 0
KMC5 132011Z 10010KT 31/18 A3011 RMK A01 T03060181  RH  047%=      5-min Rain = 0
KMC5 132012Z 09011KT 31/18 A3011 RMK A01 T03070178  RH  046%=      5-min Rain = 0
KMC5 132013Z 09007KT 31/18 A3011 RMK A01 T03060178  RH  046%=      5-min Rain = 0
KMC5 132014Z 10005KT 31/18 A3011 RMK A01 T03050176  RH  046%=      5-min Rain = 0
KMC5 132015Z 10010KT 30/18 A3011 RMK A01 T03040179  RH  047%=      5-min Rain = 0
KMC5 132016Z 10009KT 31/18 A3011 RMK A01 T03050180  RH  047%=      5-min Rain = 0
KMC5 132017Z 10008KT 31/18 A3011 RMK A01 T03050178  RH  047%=      5-min Rain = 0
KMC5 132018Z 12009KT 31/18 A3011 RMK A01 T03050181  RH  047%=      5-min Rain = 0
KMC5 132019Z 12010KT 31/18 A3011 RMK A01 T03070178  RH  046%=      5-min Rain = 0
KMC5 132020Z 10009KT 31/18 A3011 RMK A01 T03070179  RH  046%=      5-min Rain = 0
KMC5 132021Z 09009KT 31/18 A3011 RMK A01 T03070180  RH  047%=      5-min Rain = 0
KMC5 132022Z 07010KT 31/18 A3011 RMK A01 T03090183  RH  047%=      5-min Rain = 0
KMC5 132023Z 06012KT 31/18 A3011 RMK A01 T03120182  RH  046%=      5-min Rain = 0
KMC5 132024Z 06011KT 31/18 A3011 RMK A01 T03120182  RH  046%=      5-min Rain = 0
KMC5 132025Z 07012KT 31/18 A3011 RMK A01 T03120182  RH  046%=      5-min Rain = 0
KMC5 132026Z 06011KT 31/18 A3011 RMK A01 T03140180  RH  045%=      5-min Rain = 0
KMC5 132027Z 07008KT 31/18 A3011 RMK A01 T03130177  RH  044%=      5-min Rain = 0
KMC5 132028Z 04008KT 31/18 A3011 RMK A01 T03110178  RH  045%=      5-min Rain = 0
KMC5 132029Z 05005KT 31/18 A3011 RMK A01 T03100175  RH  044%=      5-min Rain = 0
KMC5 132030Z 09008KT 31/18 A3011 RMK A01 T03080179  RH  046%=      5-min Rain = 0
KMC5 132031Z 08008KT 31/18 A3011 RMK A01 T03080177  RH  046%=      5-min Rain = 0
KMC5 132032Z 09007KT 31/18 A301 RMK A01 T03050179  RH  047%=      5-min Rain = 0
KMC5 132033Z 10008KT 31/18 A301 RMK A01 T03070181  RH  047%=      5-min Rain = 0
KMC5 132034Z 09006KT 31/18 A301 RMK A01 T03090180  RH  046%=      5-min Rain = 0
KMC5 132035Z 09009KT 31/18 A301 RMK A01 T03080181  RH  046%=      5-min Rain = 0
KMC5 132036Z 11007KT 31/18 A301 RMK A01 T03090180  RH  046%=      5-min Rain = 0
KMC5 132037Z 09008KT 31/18 A301 RMK A01 T03090182  RH  047%=      5-min Rain = 0
KMC5 132038Z 07006KT 31/18 A301 RMK A01 T03110181  RH  046%=      5-min Rain = 0
KMC5 132039Z 07006KT 31/18 A301 RMK A01 T03120180  RH  045%=      5-min Rain = 0
KMC5 132040Z 08005KT 31/18 A301 RMK A01 T03120180  RH  045%=      5-min Rain = 0
KMC5 132041Z 09010KT 31/18 A301 RMK A01 T03130182  RH  046%=      5-min Rain = 0
KMC5 132042Z 11010KT 31/18 A301 RMK A01 T03140182  RH  045%=      5-min Rain = 0
KMC5 132043Z 11011KT 31/18 A301 RMK A01 T03140181  RH  045%=      5-min Rain = 0
KMC5 132044Z 11008KT 31/18 A301 RMK A01 T03110180  RH  046%=      5-min Rain = 0
KMC5 132045Z 11010KT 31/18 A301 RMK A01 T03090180  RH  046%=      5-min Rain = 0
KMC5 132046Z 12007KT 31/18 A301 RMK A01 T03100180  RH  046%=      5-min Rain = 0
KMC5 132047Z 10005KT 31/18 A301 RMK A01 T03100182  RH  047%=      5-min Rain = 0
KMC5 132048Z 10009KT 31/18 A301 RMK A01 T03110180  RH  046%=      5-min Rain = 0
KMC5 132049Z 10008KT 31/18 A301 RMK A01 T03110180  RH  046%=      5-min Rain = 0
KMC5 132050Z 11008KT 31/18 A301 RMK A01 T03100180  RH  046%=      5-min Rain = 0
KMC5 132051Z 08006KT 31/18 A301 RMK A01 T03100181  RH  046%=      5-min Rain = 0
KMC5 132052Z 05009KT 31/18 A301 RMK A01 T03110178  RH  045%=      5-min Rain = 0
KMC5 132053Z 06008KT 32/18 A301 RMK A01 T03160178  RH  044%=      5-min Rain = 0
KMC5 132054Z 06007KT 32/18 A301 RMK A01 T03180176  RH  043%=      5-min Rain = 0
KMC5 132055Z 08010G16KT 32/18 A301 RMK A01 T03170184  RH  045%=      5-min Rain = 0
KMC5 132056Z 08010KT 32/19 A301 RMK A01 T03180185  RH  045%=      5-min Rain = 0
KMC5 132057Z 08012KT 32/19 A301 RMK A01 T03200185  RH  045%=      5-min Rain = 0
KMC5 132058Z 09011KT 32/18 A301 RMK A01 T03200181  RH  044%=      5-min Rain = 0
KMC5 132059Z 08010KT 32/18 A301 RMK A01 T03170182  RH  045%=      5-min Rain = 0
KMC5 132100Z 09009KT 31/18 A301 RMK A01 T03140181  RH  045%=      5-min Rain = 0
KMC5 132101Z 10008KT 31/18 A301 RMK A01 T03120182  RH  046%=      5-min Rain = 0
KMC5 132102Z 08008KT 31/18 A301 RMK A01 T03120182  RH  046%=      5-min Rain = 0
KMC5 132103Z 12007KT 31/18 A301 RMK A01 T03120183  RH  046%=      5-min Rain = 0
KMC5 132104Z 12009KT 31/18 A301 RMK A01 T03140183  RH  046%=      5-min Rain = 0
KMC5 132105Z 10008KT 32/19 A301 RMK A01 T03170186  RH  046%=      5-min Rain = 0
KMC5 132106Z 08012KT 32/19 A301 RMK A01 T03210185  RH  045%=      5-min Rain = 0
KMC5 132107Z 08009KT 32/18 A301 RMK A01 T03170183  RH  045%=      5-min Rain = 0
KMC5 132108Z 09011KT 32/19 A301 RMK A01 T03180185  RH  045%=      5-min Rain = 0
KMC5 132109Z 10009KT 32/18 A301 RMK A01 T03170180  RH  044%=      5-min Rain = 0
KMC5 132110Z 10008KT 31/18 A301 RMK A01 T03130181  RH  046%=      5-min Rain = 0
KMC5 132111Z 08006KT 31/18 A301 RMK A01 T03100183  RH  047%=      5-min Rain = 0
KMC5 132112Z 09004KT 31/18 A301 RMK A01 T03100183  RH  047%=      5-min Rain = 0
KMC5 132113Z 07009KT 31/19 A301 RMK A01 T03110186  RH  047%=      5-min Rain = 0
KMC5 132114Z 08011KT 32/19 A3009 RMK A01 T03170188  RH  047%=      5-min Rain = 0
KMC5 132115Z 08009KT 32/19 A3009 RMK A01 T03210187  RH  045%=      5-min Rain = 0
KMC5 132116Z 08011KT 32/19 A3009 RMK A01 T03220187  RH  045%=      5-min Rain = 0
KMC5 132117Z 07012KT 32/19 A3009 RMK A01 T03200187  RH  045%=      5-min Rain = 0
KMC5 132118Z 06012KT 32/19 A3009 RMK A01 T03200186  RH  045%=      5-min Rain = 0
KMC5 132119Z 06012KT 32/19 A3009 RMK A01 T03200185  RH  045%=      5-min Rain = 0
KMC5 132120Z 07014KT 32/18 A3009 RMK A01 T03200184  RH  045%=      5-min Rain = 0
KMC5 132121Z 07011KT 32/18 A3009 RMK A01 T03170184  RH  045%=      5-min Rain = 0
KMC5 132122Z 06008KT 31/18 A3009 RMK A01 T03140183  RH  045%=      5-min Rain = 0
KMC5 132123Z 05007KT 31/18 A3009 RMK A01 T03130182  RH  046%=      5-min Rain = 0
KMC5 132124Z 08007KT 31/18 A3009 RMK A01 T03130183  RH  046%=      5-min Rain = 0
KMC5 132125Z 10005KT 31/18 A3009 RMK A01 T03120181  RH  045%=      5-min Rain = 0
KMC5 132126Z 09007KT 31/18 A3009 RMK A01 T03110181  RH  046%=      5-min Rain = 0
KMC5 132127Z 09010KT 31/18 A3009 RMK A01 T03120183  RH  046%=      5-min Rain = 0
KMC5 132128Z 10011KT 31/18 A3009 RMK A01 T03130180  RH  045%=      5-min Rain = 0
KMC5 132129Z 11011KT 31/18 A3009 RMK A01 T03130179  RH  045%=      5-min Rain = 0
KMC5 132130Z 10012KT 32/18 A3009 RMK A01 T03150181  RH  045%=      5-min Rain = 0
KMC5 132131Z 09010KT 32/18 A3009 RMK A01 T03170181  RH  044%=      5-min Rain = 0
KMC5 132132Z 08011KT 32/18 A3009 RMK A01 T03190181  RH  044%=      5-min Rain = 0
KMC5 132133Z 08010KT 32/18 A3009 RMK A01 T03190180  RH  044%=      5-min Rain = 0
KMC5 132134Z 08007KT 32/18 A3009 RMK A01 T03160178  RH  044%=      5-min Rain = 0
KMC5 132135Z 09006KT 31/18 A3009 RMK A01 T03140177  RH  044%=      5-min Rain = 0
KMC5 132136Z 07009KT 31/18 A3009 RMK A01 T03140180  RH  045%=      5-min Rain = 0
KMC5 132137Z 05012KT 32/18 A3009 RMK A01 T03170178  RH  043%=      5-min Rain = 0
KMC5 132138Z 05010KT 32/18 A3009 RMK A01 T03160179  RH  044%=      5-min Rain = 0
KMC5 132139Z 06009KT 32/18 A3009 RMK A01 T03160177  RH  043%=      5-min Rain = 0
KMC5 132140Z 05009KT 32/18 A3009 RMK A01 T03160177  RH  044%=      5-min Rain = 0
KMC5 132141Z 05008KT 32/18 A3009 RMK A01 T03160178  RH  044%=      5-min Rain = 0
KMC5 132142Z 07012KT 32/18 A3009 RMK A01 T03160176  RH  043%=      5-min Rain = 0
KMC5 132143Z 09011KT 32/18 A3009 RMK A01 T03160177  RH  043%=      5-min Rain = 0
KMC5 132144Z 07011KT 32/18 A3009 RMK A01 T03180176  RH  043%=      5-min Rain = 0
KMC5 132145Z 07010KT 32/18 A3009 RMK A01 T03170176  RH  043%=      5-min Rain = 0
KMC5 132146Z 06006KT 32/17 A3008 RMK A01 T03150173  RH  043%=      5-min Rain = 0
KMC5 132147Z 09008G13KT 31/17 A3008 RMK A01 T03100173  RH  044%=      5-min Rain = 0
KMC5 132148Z 08013KT 31/18 A3008 RMK A01 T03110178  RH  045%=      5-min Rain = 0
KMC5 132149Z 07013KT 32/18 A3008 RMK A01 T03150177  RH  044%=      5-min Rain = 0
KMC5 132150Z 07012KT 31/18 A3008 RMK A01 T03140176  RH  044%=      5-min Rain = 0
KMC5 132151Z 08010KT 31/18 A3008 RMK A01 T03130178  RH  045%=      5-min Rain = 0
KMC5 132152Z 07005KT 31/18 A3008 RMK A01 T03130176  RH  044%=      5-min Rain = 0
KMC5 132153Z 08005KT 31/17 A3008 RMK A01 T03110174  RH  044%=      5-min Rain = 0
KMC5 132154Z 12007KT 31/18 A3008 RMK A01 T03090175  RH  045%=      5-min Rain = 0
KMC5 132155Z 09008G13KT 31/17 A3008 RMK A01 T03110172  RH  043%=      5-min Rain = 0
KMC5 132156Z 09011KT 31/17 A3008 RMK A01 T03140169  RH  042%=      5-min Rain = 0
KMC5 132157Z 10010KT 31/17 A3008 RMK A01 T03140169  RH  042%=      5-min Rain = 0
KMC5 132158Z 10008KT 31/17 A3008 RMK A01 T03140170  RH  042%=      5-min Rain = 0
KMC5 132159Z 07010KT 32/17 A3008 RMK A01 T03160174  RH  043%=      5-min Rain = 0
KMC5 132200Z 07010KT 32/18 A3008 RMK A01 T03170176  RH  043%=      5-min Rain = 0
KMC5 132201Z 08009KT 32/17 A3008 RMK A01 T03170172  RH  042%=      5-min Rain = 0
KMC5 132202Z 07009KT 32/17 A3008 RMK A01 T03170170  RH  041%=      5-min Rain = 0
KMC5 132203Z 07008KT 32/17 A3008 RMK A01 T03150168  RH  041%=      5-min Rain = 0
KMC5 132204Z 08009KT 31/17 A3008 RMK A01 T03130168  RH  042%=      5-min Rain = 0
KMC5 132205Z 07006KT 31/17 A3008 RMK A01 T03140168  RH  041%=      5-min Rain = 0
KMC5 132206Z 10008KT 31/17 A3008 RMK A01 T03140166  RH  041%=      5-min Rain = 0
KMC5 132207Z 10012KT 32/17 A3008 RMK A01 T03150165  RH  041%=      5-min Rain = 0
KMC5 132208Z 10010KT 32/17 A3008 RMK A01 T03160168  RH  041%=      5-min Rain = 0
KMC5 132209Z 10009KT 31/17 A3008 RMK A01 T03140170  RH  042%=      5-min Rain = 0
KMC5 132210Z 09009KT 31/17 A3008 RMK A01 T03140168  RH  042%=      5-min Rain = 0
KMC5 132211Z 10008KT 31/17 A3008 RMK A01 T03130171  RH  043%=      5-min Rain = 0
KMC5 132212Z 11009G14KT 31/17 A3008 RMK A01 T03120171  RH  043%=      5-min Rain = 0
KMC5 132213Z 09007KT 31/17 A3008 RMK A01 T03130169  RH  042%=      5-min Rain = 0
KMC5 132214Z 09006KT 31/17 A3007 RMK A01 T03120169  RH  042%=      5-min Rain = 0
KMC5 132215Z 06011KT 31/17 A3007 RMK A01 T03110168  RH  042%=      5-min Rain = 0
KMC5 132216Z 08013KT 32/17 A3007 RMK A01 T03160167  RH  041%=      5-min Rain = 0
KMC5 132217Z 09010KT 32/16 A3007 RMK A01 T03180164  RH  040%=      5-min Rain = 0
KMC5 132218Z 09007KT 32/16 A3007 RMK A01 T03190164  RH  039%=      5-min Rain = 0
KMC5 132219Z 06008KT 32/17 A3007 RMK A01 T03190165  RH  040%=      5-min Rain = 0
KMC5 132220Z 07007KT 32/17 A3007 RMK A01 T03180165  RH  040%=      5-min Rain = 0
KMC5 132221Z 10010KT 32/17 A3007 RMK A01 T03150170  RH  042%=      5-min Rain = 0
KMC5 132222Z 11010KT 32/18 A3007 RMK A01 T03180179  RH  044%=      5-min Rain = 0
KMC5 132223Z 09008KT 32/18 A3007 RMK A01 T03190180  RH  044%=      5-min Rain = 0
KMC5 132224Z 08009KT 32/18 A3007 RMK A01 T03180180  RH  044%=      5-min Rain = 0
KMC5 132225Z 07011KT 32/18 A3007 RMK A01 T03190179  RH  044%=      5-min Rain = 0
KMC5 132226Z 08010KT 32/18 A3007 RMK A01 T03170179  RH  044%=      5-min Rain = 0
KMC5 132227Z 07009KT 32/18 A3007 RMK A01 T03150181  RH  045%=      5-min Rain = 0
KMC5 132228Z 09009KT 32/18 A3007 RMK A01 T03170177  RH  043%=      5-min Rain = 0
KMC5 132229Z 07008G13KT 31/18 A3007 RMK A01 T03130177  RH  044%=      5-min Rain = 0
KMC5 132230Z 07013KT 31/18 A3007 RMK A01 T03110180  RH  046%=      5-min Rain = 0
KMC5 132231Z 06011KT 31/18 A3007 RMK A01 T03130179  RH  045%=      5-min Rain = 0
KMC5 132232Z 06008KT 31/18 A3007 RMK A01 T03110179  RH  045%=      5-min Rain = 0
KMC5 132233Z 07014KT 31/18 A3007 RMK A01 T03100180  RH  046%=      5-min Rain = 0
KMC5 132234Z 08012KT 31/18 A3007 RMK A01 T03110182  RH  046%=      5-min Rain = 0
KMC5 132235Z 09014KT 31/18 A3007 RMK A01 T03130184  RH  046%=      5-min Rain = 0
KMC5 132236Z 10013KT 31/18 A3007 RMK A01 T03120184  RH  046%=      5-min Rain = 0
KMC5 132237Z 08013KT 31/18 A3007 RMK A01 T03110183  RH  047%=      5-min Rain = 0
KMC5 132238Z 09011KT 31/18 A3007 RMK A01 T03100181  RH  046%=      5-min Rain = 0
KMC5 132239Z 09011KT 31/18 A3007 RMK A01 T03100181  RH  046%=      5-min Rain = 0
KMC5 132240Z 10010KT 31/18 A3007 RMK A01 T03100181  RH  046%=      5-min Rain = 0
KMC5 132241Z 10008KT 31/18 A3007 RMK A01 T03110179  RH  045%=      5-min Rain = 0
KMC5 132242Z 09006KT 31/18 A3007 RMK A01 T03100181  RH  046%=      5-min Rain = 0
KMC5 132243Z 10007KT 31/18 A3007 RMK A01 T03120183  RH  046%=      5-min Rain = 0
KMC5 132244Z 09009KT 31/18 A3007 RMK A01 T03140182  RH  046%=      5-min Rain = 0
KMC5 132245Z 09010KT 31/18 A3007 RMK A01 T03140182  RH  045%=      5-min Rain = 0
KMC5 132246Z 08009KT 32/18 A3007 RMK A01 T03150180  RH  045%=      5-min Rain = 0
KMC5 132247Z 07011KT 31/18 A3007 RMK A01 T03120179  RH  045%=      5-min Rain = 0
KMC5 132248Z 08008KT 31/18 A3007 RMK A01 T03110178  RH  045%=      5-min Rain = 0
KMC5 132249Z 09009KT 31/18 A3007 RMK A01 T03110178  RH  045%=      5-min Rain = 0
KMC5 132250Z 12010KT 31/18 A3008 RMK A01 T03130184  RH  046%=      5-min Rain = 0
KMC5 132251Z 11011KT 31/19 A3008 RMK A01 T03140186  RH  047%=      5-min Rain = 0
KMC5 132252Z 11012KT 31/19 A3008 RMK A01 T03130185  RH  047%=      5-min Rain = 0
KMC5 132253Z 09009KT 31/18 A3008 RMK A01 T03110184  RH  047%=      5-min Rain = 0
KMC5 132254Z 08008KT 31/18 A3008 RMK A01 T03110183  RH  046%=      5-min Rain = 0
KMC5 132255Z 07010KT 31/18 A3008 RMK A01 T03140181  RH  045%=      5-min Rain = 0
KMC5 132256Z 07011KT 32/18 A3008 RMK A01 T03150181  RH  045%=      5-min Rain = 0
KMC5 132257Z 09012KT 32/18 A3008 RMK A01 T03150183  RH  045%=      5-min Rain = 0
KMC5 132258Z 10012KT 31/18 A3008 RMK A01 T03140180  RH  045%=      5-min Rain = 0
KMC5 132259Z 10011KT 31/18 A3008 RMK A01 T03120180  RH  045%=      5-min Rain = 0
KMC5 132300Z 10007KT 31/18 A3008 RMK A01 T03110180  RH  046%=      5-min Rain = 0
KMC5 132301Z 11011KT 31/18 A3008 RMK A01 T03110180  RH  046%=      5-min Rain = 0
KMC5 132302Z 10009KT 31/18 A3008 RMK A01 T03110179  RH  045%=      5-min Rain = 0
KMC5 132303Z 12008KT 31/18 A3008 RMK A01 T03110182  RH  046%=      5-min Rain = 0
KMC5 132304Z 10010KT 31/18 A3008 RMK A01 T03110180  RH  046%=      5-min Rain = 0
KMC5 132305Z 11012KT 31/18 A3008 RMK A01 T03100183  RH  047%=      5-min Rain = 0
KMC5 132306Z 11014KT 31/18 A3008 RMK A01 T03090183  RH  047%=      5-min Rain = 0
KMC5 132307Z 11010KT 31/18 A3008 RMK A01 T03080183  RH  047%=      5-min Rain = 0
KMC5 132308Z 11011KT 31/18 A3008 RMK A01 T03080183  RH  047%=      5-min Rain = 0
KMC5 132309Z 09013KT 31/19 A3008 RMK A01 T03080185  RH  048%=      5-min Rain = 0
KMC5 132310Z 09013KT 31/18 A3008 RMK A01 T03090183  RH  047%=      5-min Rain = 0
KMC5 132311Z 10010KT 31/18 A3008 RMK A01 T03090183  RH  047%=      5-min Rain = 0
KMC5 132312Z 09009KT 31/18 A3008 RMK A01 T03090184  RH  048%=      5-min Rain = 0
KMC5 132313Z 08011KT 31/18 A3008 RMK A01 T03110184  RH  047%=      5-min Rain = 0
KMC5 132314Z 09012KT 31/18 A3008 RMK A01 T03120183  RH  046%=      5-min Rain = 0
KMC5 132315Z 11010KT 31/18 A3008 RMK A01 T03100183  RH  047%=      5-min Rain = 0
KMC5 132316Z 11008KT 31/18 A3008 RMK A01 T03090182  RH  047%=      5-min Rain = 0
KMC5 132317Z 10009KT 31/18 A3008 RMK A01 T03080183  RH  047%=      5-min Rain = 0
KMC5 132318Z 09010KT 31/18 A3008 RMK A01 T03090184  RH  047%=      5-min Rain = 0
KMC5 132319Z 07011KT 31/18 A3008 RMK A01 T03100182  RH  046%=      5-min Rain = 0
KMC5 132320Z 09010KT 31/18 A3008 RMK A01 T03090183  RH  047%=      5-min Rain = 0
KMC5 132321Z 08011KT 31/18 A3008 RMK A01 T03080184  RH  047%=      5-min Rain = 0
KMC5 132322Z 08009KT 31/18 A3008 RMK A01 T03090182  RH  047%=      5-min Rain = 0
KMC5 132323Z 09010KT 31/18 A3008 RMK A01 T03090184  RH  047%=      5-min Rain = 0
KMC5 132324Z 10010KT 31/18 A3008 RMK A01 T03110184  RH  047%=      5-min Rain = 0
KMC5 132325Z 11013KT 31/18 A3008 RMK A01 T03120183  RH  046%=      5-min Rain = 0
KMC5 132326Z 10012KT 31/18 A3008 RMK A01 T03090181  RH  046%=      5-min Rain = 0
KMC5 132327Z 10008KT 31/18 A3008 RMK A01 T03070179  RH  046%=      5-min Rain = 0
KMC5 132328Z 09008KT 31/18 A3008 RMK A01 T03050180  RH  047%=      5-min Rain = 0
KMC5 132329Z 10010KT 31/18 A3008 RMK A01 T03050181  RH  047%=      5-min Rain = 0
KMC5 132330Z 09011KT 31/18 A3008 RMK A01 T03070182  RH  047%=      5-min Rain = 0
KMC5 132331Z 09007KT 30/18 A3008 RMK A01 T03040181  RH  048%=      5-min Rain = 0
KMC5 132332Z 10007KT 30/18 A3008 RMK A01 T03020182  RH  049%=      5-min Rain = 0
KMC5 132333Z 13007KT 30/18 A3008 RMK A01 T03040182  RH  048%=      5-min Rain = 0
KMC5 132334Z 12005KT 31/18 A3008 RMK A01 T03060181  RH  047%=      5-min Rain = 0
KMC5 132335Z 12006KT 31/18 A3008 RMK A01 T03060183  RH  048%=      5-min Rain = 0
KMC5 132336Z 10006KT 31/19 A3008 RMK A01 T03080186  RH  048%=      5-min Rain = 0
KMC5 132337Z 10009KT 31/19 A3008 RMK A01 T03090187  RH  048%=      5-min Rain = 0
KMC5 132338Z 10012KT 31/19 A3008 RMK A01 T03100187  RH  048%=      5-min Rain = 0
KMC5 132339Z 10011KT 31/19 A3008 RMK A01 T03100186  RH  048%=      5-min Rain = 0
KMC5 132340Z 10011KT 31/19 A3008 RMK A01 T03080186  RH  048%=      5-min Rain = 0
KMC5 132341Z 10010KT 31/19 A3008 RMK A01 T03080185  RH  048%=      5-min Rain = 0
KMC5 132342Z 11011KT 31/18 A3008 RMK A01 T03070184  RH  048%=      5-min Rain = 0
KMC5 132343Z 10010KT 31/19 A3008 RMK A01 T03070185  RH  048%=      5-min Rain = 0
KMC5 132344Z 10010KT 31/19 A3008 RMK A01 T03080185  RH  048%=      5-min Rain = 0
KMC5 132345Z 10009KT 31/18 A3009 RMK A01 T03070182  RH  047%=      5-min Rain = 0
KMC5 132346Z 11008KT 31/18 A3008 RMK A01 T03050183  RH  048%=      5-min Rain = 0
KMC5 132347Z 07011KT 31/18 A3008 RMK A01 T03050184  RH  049%=      5-min Rain = 0
KMC5 132348Z 08008G13KT 31/18 A3008 RMK A01 T03060182  RH  048%=      5-min Rain = 0
KMC5 132349Z 07008KT 31/18 A3008 RMK A01 T03050183  RH  048%=      5-min Rain = 0
KMC5 132350Z 08010KT 31/18 A3008 RMK A01 T03050184  RH  049%=      5-min Rain = 0
KMC5 132351Z 08011KT 31/19 A3008 RMK A01 T03050185  RH  049%=      5-min Rain = 0
KMC5 132352Z 08012KT 31/18 A3008 RMK A01 T03050183  RH  048%=      5-min Rain = 0
KMC5 132353Z 08011KT 30/18 A3008 RMK A01 T03030183  RH  049%=      5-min Rain = 0
KMC5 132354Z 07010KT 30/18 A3009 RMK A01 T03020183  RH  049%=      5-min Rain = 0
KMC5 132355Z 08007KT 30/19 A3009 RMK A01 T03010185  RH  050%=      5-min Rain = 0
KMC5 132356Z 09007KT 30/18 A3008 RMK A01 T03010184  RH  049%=      5-min Rain = 0
KMC5 132357Z 08008KT 30/18 A3008 RMK A01 T03010183  RH  049%=      5-min Rain = 0
KMC5 132358Z 08006KT 30/18 A3008 RMK A01 T03010184  RH  050%=      5-min Rain = 0
KMC5 132359Z 09009KT 30/19 A3008 RMK A01 T03010185  RH  050%=      5-min Rain = 0
KMC5 140000Z 09008KT 30/19 A3008 RMK A01 T03030185  RH  049%=      5-min Rain = 0
KMC5 140001Z 10009KT 30/19 A3008 RMK A01 T03040186  RH  049%=      5-min Rain = 0
KMC5 140002Z 09010KT 31/18 A3008 RMK A01 T03050184  RH  048%=      5-min Rain = 0
KMC5 140003Z 10010KT 30/18 A3008 RMK A01 T03040182  RH  048%=      5-min Rain = 0
KMC5 140004Z 10008KT 30/18 A3008 RMK A01 T03020183  RH  049%=      5-min Rain = 0
KMC5 140005Z 11008KT 30/18 A3008 RMK A01 T03020183  RH  049%=      5-min Rain = 0
KMC5 140006Z 10009KT 30/18 A3008 RMK A01 T03010183  RH  049%=      5-min Rain = 0
KMC5 140007Z 10007KT 30/18 A3008 RMK A01 T03020184  RH  049%=      5-min Rain = 0
KMC5 140008Z 10007KT 30/19 A3008 RMK A01 T03020186  RH  050%=      5-min Rain = 0
KMC5 140009Z 08010KT 30/19 A3008 RMK A01 T03020185  RH  049%=      5-min Rain = 0
KMC5 140010Z 08009KT 30/18 A3008 RMK A01 T03020184  RH  049%=      5-min Rain = 0
KMC5 140011Z 08009KT 30/18 A3008 RMK A01 T03000184  RH  050%=      5-min Rain = 0
KMC5 140012Z 09008KT 30/19 A3008 RMK A01 T02990185  RH  050%=      5-min Rain = 0
KMC5 140013Z 08009KT 30/19 A3008 RMK A01 T03000186  RH  051%=      5-min Rain = 0
KMC5 140014Z 08010KT 30/19 A3008 RMK A01 T02990186  RH  051%=      5-min Rain = 0
KMC5 140015Z 10009KT 30/19 A3008 RMK A01 T02990186  RH  051%=      5-min Rain = 0
KMC5 140016Z 11010KT 30/19 A3008 RMK A01 T02990187  RH  051%=      5-min Rain = 0
KMC5 140017Z 11009KT 30/19 A3008 RMK A01 T02990187  RH  051%=      5-min Rain = 0
KMC5 140018Z 11009KT 30/19 A3008 RMK A01 T02980186  RH  051%=      5-min Rain = 0
KMC5 140019Z 11011KT 30/19 A3008 RMK A01 T02980186  RH  051%=      5-min Rain = 0
KMC5 140020Z 12009KT 30/19 A3008 RMK A01 T02970185  RH  051%=      5-min Rain = 0
KMC5 140021Z 10009KT 30/19 A3008 RMK A01 T02970186  RH  051%=      5-min Rain = 0
KMC5 140022Z 10010KT 30/19 A3008 RMK A01 T02970185  RH  051%=      5-min Rain = 0
KMC5 140023Z 11011KT 30/18 A3008 RMK A01 T02970183  RH  050%=      5-min Rain = 0
KMC5 140024Z 10011KT 30/18 A3008 RMK A01 T02960184  RH  051%=      5-min Rain = 0
KMC5 140025Z 10011KT 30/18 A3008 RMK A01 T02960184  RH  051%=      5-min Rain = 0
KMC5 140026Z 10009KT 30/19 A3008 RMK A01 T02950185  RH  051%=      5-min Rain = 0
KMC5 140027Z 10009KT 30/19 A3008 RMK A01 T02950186  RH  052%=      5-min Rain = 0
KMC5 140028Z 10009KT 30/19 A3008 RMK A01 T02950185  RH  051%=      5-min Rain = 0
KMC5 140029Z 10009KT 30/19 A3008 RMK A01 T02950185  RH  052%=      5-min Rain = 0
KMC5 140030Z 11009KT 30/19 A3008 RMK A01 T02950186  RH  052%=      5-min Rain = 0
KMC5 140031Z 09009KT 30/19 A3008 RMK A01 T02950187  RH  052%=      5-min Rain = 0
KMC5 140032Z 09009KT 30/19 A3008 RMK A01 T02950187  RH  052%=      5-min Rain = 0
KMC5 140033Z 10009KT 30/19 A3008 RMK A01 T02950186  RH  052%=      5-min Rain = 0
KMC5 140034Z 09009KT 29/19 A3008 RMK A01 T02940186  RH  052%=      5-min Rain = 0
KMC5 140035Z 09009KT 29/19 A3008 RMK A01 T02930185  RH  052%=      5-min Rain = 0
KMC5 140036Z 09009KT 29/19 A3009 RMK A01 T02930185  RH  052%=      5-min Rain = 0
KMC5 140037Z 09009KT 29/19 A3009 RMK A01 T02920185  RH  052%=      5-min Rain = 0
KMC5 140038Z 10009KT 29/19 A3008 RMK A01 T02920185  RH  052%=      5-min Rain = 0
KMC5 140039Z 09007KT 29/19 A3008 RMK A01 T02920185  RH  052%=      5-min Rain = 0
KMC5 140040Z 09008KT 29/19 A3008 RMK A01 T02920185  RH  053%=      5-min Rain = 0
KMC5 140041Z 08008KT 29/18 A3008 RMK A01 T02920184  RH  052%=      5-min Rain = 0
KMC5 140042Z 08008KT 29/18 A3008 RMK A01 T02910183  RH  052%=      5-min Rain = 0
KMC5 140043Z 08009KT 29/18 A3008 RMK A01 T02910184  RH  053%=      5-min Rain = 0
KMC5 140044Z 10009KT 29/19 A3008 RMK A01 T02910186  RH  053%=      5-min Rain = 0
KMC5 140045Z 10011KT 29/19 A3008 RMK A01 T02900186  RH  053%=      5-min Rain = 0
KMC5 140046Z 10009KT 29/19 A3008 RMK A01 T02890187  RH  054%=      5-min Rain = 0
KMC5 140047Z 10008KT 29/19 A3008 RMK A01 T02890187  RH  054%=      5-min Rain = 0
KMC5 140048Z 10008KT 29/19 A3008 RMK A01 T02880187  RH  054%=      5-min Rain = 0
KMC5 140049Z 10008KT 29/19 A3008 RMK A01 T02880188  RH  055%=      5-min Rain = 0
KMC5 140050Z 10007KT 29/19 A3008 RMK A01 T02880188  RH  055%=      5-min Rain = 0
KMC5 140051Z 10008KT 29/19 A3008 RMK A01 T02870187  RH  055%=      5-min Rain = 0
KMC5 140052Z 10007KT 29/19 A3008 RMK A01 T02870186  RH  055%=      5-min Rain = 0
KMC5 140053Z 10008KT 29/19 A3008 RMK A01 T02860186  RH  055%=      5-min Rain = 0
KMC5 140054Z 10009KT 29/19 A3008 RMK A01 T02860186  RH  055%=      5-min Rain = 0
KMC5 140055Z 10010KT 29/18 A3008 RMK A01 T02860184  RH  054%=      5-min Rain = 0
KMC5 140056Z 10009KT 29/18 A3008 RMK A01 T02850184  RH  054%=      5-min Rain = 0
KMC5 140057Z 10009KT 29/18 A3008 RMK A01 T02850184  RH  054%=      5-min Rain = 0
KMC5 140058Z 11009KT 29/19 A3008 RMK A01 T02850185  RH  055%=      5-min Rain = 0
KMC5 140059Z 11009KT 28/19 A3008 RMK A01 T02840185  RH  055%=      5-min Rain = 0
KMC5 140100Z 10011KT 28/18 A3009 RMK A01 T02840183  RH  055%=      5-min Rain = 0
KMC5 140101Z 10008KT 28/18 A3009 RMK A01 T02830184  RH  055%=      5-min Rain = 0
KMC5 140102Z 10009KT 28/18 A3009 RMK A01 T02830184  RH  055%=      5-min Rain = 0
KMC5 140103Z 10009KT 28/18 A3009 RMK A01 T02830184  RH  055%=      5-min Rain = 0
KMC5 140104Z 09009KT 28/18 A3009 RMK A01 T02820183  RH  055%=      5-min Rain = 0
KMC5 140105Z 10011KT 28/18 A3009 RMK A01 T02820183  RH  055%=      5-min Rain = 0
KMC5 140106Z 10010KT 28/18 A3009 RMK A01 T02810182  RH  055%=      5-min Rain = 0
KMC5 140107Z 10009KT 28/18 A3009 RMK A01 T02810183  RH  055%=      5-min Rain = 0
KMC5 140108Z 10008KT 28/18 A3009 RMK A01 T02800183  RH  056%=      5-min Rain = 0
KMC5 140109Z 10007KT 28/18 A3009 RMK A01 T02790184  RH  056%=      5-min Rain = 0
KMC5 140110Z 10008KT 28/18 A3009 RMK A01 T02780183  RH  056%=      5-min Rain = 0
KMC5 140111Z 10007KT 28/18 A3009 RMK A01 T02780182  RH  056%=      5-min Rain = 0
KMC5 140112Z 10008KT 28/18 A3009 RMK A01 T02780183  RH  056%=      5-min Rain = 0
KMC5 140113Z 10008KT 28/18 A3009 RMK A01 T02770183  RH  056%=      5-min Rain = 0
KMC5 140114Z 10007KT 28/18 A3009 RMK A01 T02770183  RH  057%=      5-min Rain = 0
KMC5 140115Z 10007KT 28/18 A3009 RMK A01 T02760183  RH  057%=      5-min Rain = 0
KMC5 140116Z 10007KT 28/18 A3009 RMK A01 T02750183  RH  057%=      5-min Rain = 0
KMC5 140117Z 10007KT 28/18 A301 RMK A01 T02750183  RH  057%=      5-min Rain = 0
KMC5 140118Z 10007KT 27/18 A301 RMK A01 T02740183  RH  057%=      5-min Rain = 0
KMC5 140119Z 10007KT 27/18 A301 RMK A01 T02740184  RH  058%=      5-min Rain = 0
KMC5 140120Z 10006KT 27/18 A301 RMK A01 T02730184  RH  058%=      5-min Rain = 0
KMC5 140121Z 11007KT 27/18 A301 RMK A01 T02720183  RH  058%=      5-min Rain = 0
KMC5 140122Z 10007KT 27/18 A301 RMK A01 T02720183  RH  058%=      5-min Rain = 0
KMC5 140123Z 10007KT 27/18 A301 RMK A01 T02720183  RH  058%=      5-min Rain = 0
KMC5 140124Z 10006KT 27/18 A301 RMK A01 T02710184  RH  059%=      5-min Rain = 0
KMC5 140125Z 10007KT 27/18 A301 RMK A01 T02700183  RH  059%=      5-min Rain = 0
KMC5 140126Z 10006KT 27/18 A301 RMK A01 T02700183  RH  059%=      5-min Rain = 0
KMC5 140127Z 10007KT 27/18 A301 RMK A01 T02690183  RH  059%=      5-min Rain = 0
KMC5 140128Z 10007KT 27/18 A301 RMK A01 T02690182  RH  059%=      5-min Rain = 0
KMC5 140129Z 10006KT 27/18 A301 RMK A01 T02690183  RH  059%=      5-min Rain = 0
KMC5 140130Z 10006KT 27/18 A301 RMK A01 T02680183  RH  059%=      5-min Rain = 0
KMC5 140131Z 10006KT 27/18 A301 RMK A01 T02680183  RH  060%=      5-min Rain = 0
KMC5 140132Z 11006KT 27/18 A301 RMK A01 T02670183  RH  060%=      5-min Rain = 0
KMC5 140133Z 11006KT 27/18 A3011 RMK A01 T02660183  RH  060%=      5-min Rain = 0
KMC5 140134Z 11006KT 27/18 A3011 RMK A01 T02650183  RH  060%=      5-min Rain = 0
KMC5 140135Z 11006KT 27/18 A3011 RMK A01 T02650183  RH  061%=      5-min Rain = 0
KMC5 140136Z 10006KT 27/18 A3011 RMK A01 T02650182  RH  061%=      5-min Rain = 0
KMC5 140137Z 10006KT 27/18 A3011 RMK A01 T02650182  RH  061%=      5-min Rain = 0
KMC5 140138Z 10006KT 27/18 A3011 RMK A01 T02650183  RH  061%=      5-min Rain = 0
KMC5 140139Z 10006KT 26/18 A3011 RMK A01 T02640182  RH  061%=      5-min Rain = 0
KMC5 140140Z 09006KT 26/18 A3011 RMK A01 T02640181  RH  060%=      5-min Rain = 0
KMC5 140141Z 09006KT 27/18 A3011 RMK A01 T02650181  RH  060%=      5-min Rain = 0
KMC5 140142Z 09006KT 27/18 A3011 RMK A01 T02660181  RH  060%=      5-min Rain = 0
KMC5 140143Z 09006KT 27/18 A3011 RMK A01 T02670181  RH  059%=      5-min Rain = 0
KMC5 140144Z 09006KT 27/18 A3012 RMK A01 T02670181  RH  059%=      5-min Rain = 0
KMC5 140145Z 09006KT 27/18 A3012 RMK A01 T02670180  RH  059%=      5-min Rain = 0
KMC5 140146Z 09005KT 27/18 A3012 RMK A01 T02670181  RH  059%=      5-min Rain = 0
KMC5 140147Z 08005KT 27/18 A3012 RMK A01 T02670181  RH  059%=      5-min Rain = 0
KMC5 140148Z 08005KT 27/18 A3012 RMK A01 T02660181  RH  060%=      5-min Rain = 0
KMC5 140149Z 07004KT 26/18 A3012 RMK A01 T02640181  RH  060%=      5-min Rain = 0
KMC5 140150Z 06004KT 26/18 A3012 RMK A01 T02630182  RH  061%=      5-min Rain = 0
KMC5 140151Z 06004KT 26/18 A3012 RMK A01 T02610182  RH  062%=      5-min Rain = 0
KMC5 140152Z 07004KT 26/18 A3012 RMK A01 T02590182  RH  062%=      5-min Rain = 0
KMC5 140153Z 07004KT 26/18 A3012 RMK A01 T02580182  RH  063%=      5-min Rain = 0
KMC5 140154Z 06004KT 26/18 A3012 RMK A01 T02580182  RH  063%=      5-min Rain = 0
KMC5 140155Z 07004KT 26/18 A3012 RMK A01 T02590183  RH  063%=      5-min Rain = 0
KMC5 140156Z 06004KT 26/18 A3012 RMK A01 T02590183  RH  063%=      5-min Rain = 0
KMC5 140157Z 06004KT 26/18 A3012 RMK A01 T02590183  RH  063%=      5-min Rain = 0
KMC5 140158Z 07004KT 26/18 A3012 RMK A01 T02590183  RH  063%=      5-min Rain = 0
KMC5 140159Z 07004KT 26/18 A3013 RMK A01 T02590183  RH  063%=      5-min Rain = 0
KMC5 140200Z 08005KT 26/18 A3013 RMK A01 T02600184  RH  063%=      5-min Rain = 0
KMC5 140201Z 08005KT 26/18 A3013 RMK A01 T02590183  RH  063%=      5-min Rain = 0
KMC5 140202Z 08005KT 26/18 A3013 RMK A01 T02590183  RH  063%=      5-min Rain = 0
KMC5 140203Z 08005KT 26/18 A3013 RMK A01 T02590183  RH  063%=      5-min Rain = 0
KMC5 140204Z 07005KT 26/18 A3013 RMK A01 T02580183  RH  063%=      5-min Rain = 0
KMC5 140205Z 08005KT 26/18 A3013 RMK A01 T02580183  RH  063%=      5-min Rain = 0
KMC5 140206Z 08005KT 26/18 A3013 RMK A01 T02580183  RH  063%=      5-min Rain = 0
KMC5 140207Z 08005KT 26/18 A3014 RMK A01 T02580183  RH  064%=      5-min Rain = 0
KMC5 140208Z 08005KT 26/18 A3014 RMK A01 T02570184  RH  064%=      5-min Rain = 0
KMC5 140209Z 08005KT 26/18 A3014 RMK A01 T02570184  RH  064%=      5-min Rain = 0
KMC5 140210Z 08006KT 26/18 A3014 RMK A01 T02570184  RH  064%=      5-min Rain = 0
KMC5 140211Z 08005KT 26/18 A3014 RMK A01 T02570184  RH  064%=      5-min Rain = 0
KMC5 140212Z 08005KT 26/18 A3014 RMK A01 T02560184  RH  064%=      5-min Rain = 0
KMC5 140213Z 08005KT 26/18 A3014 RMK A01 T02560184  RH  065%=      5-min Rain = 0
KMC5 140214Z 08005KT 26/19 A3014 RMK A01 T02550185  RH  065%=      5-min Rain = 0
KMC5 140215Z 09006KT 26/19 A3014 RMK A01 T02550185  RH  065%=      5-min Rain = 0
KMC5 140216Z 09006KT 26/19 A3014 RMK A01 T02550185  RH  065%=      5-min Rain = 0
KMC5 140217Z 09006KT 26/19 A3014 RMK A01 T02550185  RH  065%=      5-min Rain = 0
KMC5 140218Z 09006KT 26/19 A3014 RMK A01 T02560185  RH  065%=      5-min Rain = 0
KMC5 140219Z 09006KT 26/19 A3014 RMK A01 T02570185  RH  064%=      5-min Rain = 0
KMC5 140220Z 09007KT 26/19 A3014 RMK A01 T02570185  RH  064%=      5-min Rain = 0
KMC5 140221Z 09007KT 26/19 A3014 RMK A01 T02570185  RH  064%=      5-min Rain = 0
KMC5 140222Z 09008KT 26/19 A3014 RMK A01 T02570185  RH  064%=      5-min Rain = 0
KMC5 140223Z 10008KT 26/19 A3014 RMK A01 T02570185  RH  065%=      5-min Rain = 0
KMC5 140224Z 10008KT 26/19 A3014 RMK A01 T02560185  RH  065%=      5-min Rain = 0
KMC5 140225Z 10008KT 26/19 A3014 RMK A01 T02550185  RH  065%=      5-min Rain = 0
KMC5 140226Z 10008KT 26/19 A3014 RMK A01 T02550186  RH  066%=      5-min Rain = 0
KMC5 140227Z 10008KT 25/19 A3014 RMK A01 T02540185  RH  066%=      5-min Rain = 0
KMC5 140228Z 10008KT 25/19 A3014 RMK A01 T02540185  RH  066%=      5-min Rain = 0
KMC5 140229Z 10008KT 25/19 A3014 RMK A01 T02530185  RH  066%=      5-min Rain = 0
KMC5 140230Z 10007KT 25/19 A3014 RMK A01 T02530185  RH  066%=      5-min Rain = 0
KMC5 140231Z 10007KT 25/19 A3014 RMK A01 T02530185  RH  066%=      5-min Rain = 0
KMC5 140232Z 10007KT 25/19 A3014 RMK A01 T02530185  RH  066%=      5-min Rain = 0
KMC5 140233Z 10007KT 25/19 A3014 RMK A01 T02530185  RH  066%=      5-min Rain = 0
KMC5 140234Z 11007KT 25/19 A3014 RMK A01 T02520185  RH  066%=      5-min Rain = 0
KMC5 140235Z 11006KT 25/19 A3014 RMK A01 T02510186  RH  067%=      5-min Rain = 0
KMC5 140236Z 11006KT 25/19 A3014 RMK A01 T02490186  RH  068%=      5-min Rain = 0
KMC5 140237Z 11006KT 25/19 A3014 RMK A01 T02470185  RH  068%=      5-min Rain = 0
KMC5 140238Z 11006KT 25/19 A3014 RMK A01 T02460186  RH  069%=      5-min Rain = 0
KMC5 140239Z 11006KT 25/19 A3014 RMK A01 T02460186  RH  069%=      5-min Rain = 0
KMC5 140240Z 11007KT 25/19 A3014 RMK A01 T02450186  RH  069%=      5-min Rain = 0
KMC5 140241Z 11007KT 25/19 A3014 RMK A01 T02450185  RH  069%=      5-min Rain = 0
KMC5 140242Z 10007KT 25/19 A3014 RMK A01 T02460185  RH  069%=      5-min Rain = 0
KMC5 140243Z 11007KT 25/19 A3014 RMK A01 T02460185  RH  069%=      5-min Rain = 0
KMC5 140244Z 11006KT 25/19 A3014 RMK A01 T02460186  RH  069%=      5-min Rain = 0
KMC5 140245Z 11007KT 25/19 A3014 RMK A01 T02460186  RH  069%=      5-min Rain = 0
KMC5 140246Z 12006KT 24/19 A3014 RMK A01 T02440186  RH  070%=      5-min Rain = 0
KMC5 140247Z 12006KT 24/19 A3014 RMK A01 T02430186  RH  071%=      5-min Rain = 0
KMC5 140248Z 12006KT 24/19 A3014 RMK A01 T02420187  RH  071%=      5-min Rain = 0
KMC5 140249Z 13005KT 24/19 A3014 RMK A01 T02410187  RH  072%=      5-min Rain = 0
KMC5 140250Z 13005KT 24/19 A3014 RMK A01 T02400187  RH  072%=      5-min Rain = 0
KMC5 140251Z 12005KT 24/19 A3014 RMK A01 T02390187  RH  073%=      5-min Rain = 0
KMC5 140252Z 12005KT 24/19 A3014 RMK A01 T02380187  RH  073%=      5-min Rain = 0
KMC5 140253Z 11005KT 24/19 A3014 RMK A01 T02380187  RH  073%=      5-min Rain = 0
KMC5 140254Z 12005KT 24/19 A3014 RMK A01 T02370188  RH  074%=      5-min Rain = 0
KMC5 140255Z 11005KT 24/19 A3014 RMK A01 T02370188  RH  074%=      5-min Rain = 0
KMC5 140256Z 11005KT 24/19 A3014 RMK A01 T02370188  RH  074%=      5-min Rain = 0
KMC5 140257Z 11005KT 24/19 A3014 RMK A01 T02370188  RH  074%=      5-min Rain = 0
KMC5 140258Z 11005KT 24/19 A3014 RMK A01 T02370188  RH  074%=      5-min Rain = 0
KMC5 140259Z 11005KT 24/19 A3014 RMK A01 T02370187  RH  074%=      5-min Rain = 0
KMC5 140300Z 11005KT 24/19 A3014 RMK A01 T02380188  RH  073%=      5-min Rain = 0
KMC5 140301Z 11005KT 24/19 A3014 RMK A01 T02380187  RH  073%=      5-min Rain = 0
KMC5 140302Z 11005KT 24/19 A3014 RMK A01 T02380187  RH  073%=      5-min Rain = 0
KMC5 140303Z 11005KT 24/19 A3014 RMK A01 T02380188  RH  073%=      5-min Rain = 0
KMC5 140304Z 11005KT 24/19 A3014 RMK A01 T02380188  RH  073%=      5-min Rain = 0
KMC5 140305Z 11004KT 24/19 A3014 RMK A01 T02380188  RH  073%=      5-min Rain = 0
KMC5 140306Z 10004KT 24/19 A3014 RMK A01 T02390188  RH  073%=      5-min Rain = 0
KMC5 140307Z 10005KT 24/19 A3015 RMK A01 T02380188  RH  074%=      5-min Rain = 0
KMC5 140308Z 10005KT 24/19 A3015 RMK A01 T02380188  RH  074%=      5-min Rain = 0
KMC5 140309Z 10006KT 24/19 A3015 RMK A01 T02380188  RH  074%=      5-min Rain = 0
KMC5 140310Z 09005KT 24/19 A3015 RMK A01 T02380188  RH  074%=      5-min Rain = 0
KMC5 140311Z 09006KT 24/19 A3015 RMK A01 T02390187  RH  073%=      5-min Rain = 0
KMC5 140312Z 09005KT 24/19 A3015 RMK A01 T02410188  RH  072%=      5-min Rain = 0
KMC5 140313Z 09005KT 24/19 A3015 RMK A01 T02420187  RH  071%=      5-min Rain = 0
KMC5 140314Z 09005KT 24/19 A3015 RMK A01 T02420187  RH  071%=      5-min Rain = 0
KMC5 140315Z 09005KT 24/19 A3015 RMK A01 T02430187  RH  071%=      5-min Rain = 0
KMC5 140316Z 09006KT 24/19 A3015 RMK A01 T02420187  RH  071%=      5-min Rain = 0
KMC5 140317Z 09006KT 24/19 A3015 RMK A01 T02420187  RH  071%=      5-min Rain = 0
KMC5 140318Z 09007KT 24/19 A3016 RMK A01 T02420188  RH  072%=      5-min Rain = 0
KMC5 140319Z 09007KT 24/19 A3016 RMK A01 T02420188  RH  071%=      5-min Rain = 0
KMC5 140320Z 09007KT 24/19 A3016 RMK A01 T02430188  RH  071%=      5-min Rain = 0
KMC5 140321Z 09007KT 24/19 A3016 RMK A01 T02430188  RH  071%=      5-min Rain = 0
KMC5 140322Z 09007KT 24/19 A3016 RMK A01 T02430188  RH  071%=      5-min Rain = 0
KMC5 140323Z 09007KT 24/19 A3016 RMK A01 T02430188  RH  071%=      5-min Rain = 0
KMC5 140324Z 09006KT 24/19 A3016 RMK A01 T02440188  RH  071%=      5-min Rain = 0
KMC5 140325Z 08006KT 24/19 A3016 RMK A01 T02440188  RH  071%=      5-min Rain = 0
KMC5 140326Z 08006KT 24/19 A3016 RMK A01 T02430189  RH  072%=      5-min Rain = 0
KMC5 140327Z 07005KT 24/19 A3016 RMK A01 T02420189  RH  072%=      5-min Rain = 0
KMC5 140328Z 07005KT 24/19 A3017 RMK A01 T02400188  RH  072%=      5-min Rain = 0
KMC5 140329Z 07005KT 24/19 A3017 RMK A01 T02400188  RH  073%=      5-min Rain = 0
KMC5 140330Z 06004KT 24/19 A3017 RMK A01 T02390188  RH  073%=      5-min Rain = 0
KMC5 140331Z 07005KT 24/19 A3017 RMK A01 T02390188  RH  073%=      5-min Rain = 0
KMC5 140332Z 07005KT 24/19 A3017 RMK A01 T02400188  RH  073%=      5-min Rain = 0
KMC5 140333Z 07005KT 24/19 A3017 RMK A01 T02400188  RH  072%=      5-min Rain = 0
KMC5 140334Z 07005KT 24/19 A3017 RMK A01 T02400188  RH  072%=      5-min Rain = 0
KMC5 140335Z 07005KT 24/19 A3017 RMK A01 T02410189  RH  073%=      5-min Rain = 0
KMC5 140336Z 08005KT 24/19 A3017 RMK A01 T02400188  RH  073%=      5-min Rain = 0
KMC5 140337Z 08006KT 24/19 A3016 RMK A01 T02400189  RH  073%=      5-min Rain = 0
KMC5 140338Z 08006KT 24/19 A3016 RMK A01 T02400188  RH  073%=      5-min Rain = 0
KMC5 140339Z 09006KT 24/19 A3016 RMK A01 T02400188  RH  073%=      5-min Rain = 0
KMC5 140340Z 09007KT 24/19 A3016 RMK A01 T02410188  RH  072%=      5-min Rain = 0
KMC5 140341Z 09008KT 24/19 A3016 RMK A01 T02410188  RH  072%=      5-min Rain = 0
KMC5 140342Z 09007KT 24/19 A3016 RMK A01 T02420188  RH  072%=      5-min Rain = 0
KMC5 140343Z 09007KT 24/19 A3016 RMK A01 T02430188  RH  071%=      5-min Rain = 0
KMC5 140344Z 09006KT 24/19 A3016 RMK A01 T02440188  RH  071%=      5-min Rain = 0
KMC5 140345Z 08007KT 24/19 A3016 RMK A01 T02440188  RH  071%=      5-min Rain = 0
KMC5 140346Z 08006KT 24/19 A3017 RMK A01 T02440188  RH  071%=      5-min Rain = 0
KMC5 140347Z 08006KT 24/19 A3017 RMK A01 T02440188  RH  071%=      5-min Rain = 0
KMC5 140348Z 07006KT 24/19 A3017 RMK A01 T02430188  RH  071%=      5-min Rain = 0
KMC5 140349Z 07005KT 24/19 A3017 RMK A01 T02410188  RH  072%=      5-min Rain = 0
KMC5 140350Z 07005KT 24/19 A3017 RMK A01 T02390188  RH  073%=      5-min Rain = 0
KMC5 140351Z 07005KT 24/19 A3017 RMK A01 T02380188  RH  074%=      5-min Rain = 0
KMC5 140352Z 08005KT 24/19 A3017 RMK A01 T02370188  RH  074%=      5-min Rain = 0
KMC5 140353Z 07005KT 24/19 A3017 RMK A01 T02370188  RH  074%=      5-min Rain = 0
KMC5 140354Z 08005KT 24/19 A3017 RMK A01 T02370188  RH  074%=      5-min Rain = 0
KMC5 140355Z 09006KT 24/19 A3017 RMK A01 T02370187  RH  073%=      5-min Rain = 0
KMC5 140356Z 09005KT 24/19 A3017 RMK A01 T02390187  RH  073%=      5-min Rain = 0
KMC5 140357Z 09005KT 24/19 A3017 RMK A01 T02400187  RH  072%=      5-min Rain = 0
KMC5 140358Z 09005KT 24/19 A3017 RMK A01 T02410187  RH  072%=      5-min Rain = 0
KMC5 140359Z 08005KT 24/19 A3017 RMK A01 T02400187  RH  072%=      5-min Rain = 0
KMC5 140400Z 08005KT 24/19 A3017 RMK A01 T02410187  RH  072%=      5-min Rain = 0
KMC5 140401Z 08004KT 24/19 A3017 RMK A01 T02410187  RH  072%=      5-min Rain = 0
KMC5 140402Z 07005KT 24/19 A3017 RMK A01 T02410188  RH  072%=      5-min Rain = 0
KMC5 140403Z 07004KT 24/19 A3017 RMK A01 T02400188  RH  073%=      5-min Rain = 0
KMC5 140404Z 07004KT 24/19 A3017 RMK A01 T02390188  RH  073%=      5-min Rain = 0
KMC5 140405Z 07004KT 24/19 A3017 RMK A01 T02380187  RH  073%=      5-min Rain = 0
KMC5 140406Z 07004KT 24/19 A3017 RMK A01 T02380188  RH  073%=      5-min Rain = 0
KMC5 140407Z 08005KT 24/19 A3017 RMK A01 T02380188  RH  074%=      5-min Rain = 0
KMC5 140408Z 07005KT 24/19 A3017 RMK A01 T02380188  RH  074%=      5-min Rain = 0
KMC5 140409Z 07005KT 24/19 A3017 RMK A01 T02370188  RH  074%=      5-min Rain = 0
KMC5 140410Z 08005KT 24/19 A3017 RMK A01 T02370188  RH  074%=      5-min Rain = 0
KMC5 140411Z 08005KT 24/19 A3017 RMK A01 T02370188  RH  074%=      5-min Rain = 0
KMC5 140412Z 08005KT 24/19 A3017 RMK A01 T02370188  RH  074%=      5-min Rain = 0
KMC5 140413Z 08005KT 24/19 A3017 RMK A01 T02380187  RH  073%=      5-min Rain = 0
KMC5 140414Z 07005KT 24/19 A3018 RMK A01 T02380187  RH  073%=      5-min Rain = 0
KMC5 140415Z 07005KT 24/19 A3018 RMK A01 T02380187  RH  073%=      5-min Rain = 0
KMC5 140416Z 07004KT 24/19 A3018 RMK A01 T02370187  RH  073%=      5-min Rain = 0
KMC5 140417Z 07006KT 24/19 A3018 RMK A01 T02380187  RH  073%=      5-min Rain = 0
KMC5 140418Z 07005KT 24/19 A3018 RMK A01 T02390187  RH  073%=      5-min Rain = 0
KMC5 140419Z 07005KT 24/19 A3018 RMK A01 T02390187  RH  072%=      5-min Rain = 0
KMC5 140420Z 07005KT 24/19 A3018 RMK A01 T02400186  RH  072%=      5-min Rain = 0
KMC5 140421Z 07005KT 24/19 A3018 RMK A01 T02410187  RH  072%=      5-min Rain = 0
KMC5 140422Z 07005KT 24/19 A3018 RMK A01 T02400187  RH  072%=      5-min Rain = 0
KMC5 140423Z 07005KT 24/19 A3018 RMK A01 T02400187  RH  072%=      5-min Rain = 0
KMC5 140424Z 07005KT 24/19 A3018 RMK A01 T02390187  RH  073%=      5-min Rain = 0
KMC5 140425Z 07005KT 24/19 A3018 RMK A01 T02380187  RH  073%=      5-min Rain = 0
KMC5 140426Z 07005KT 24/19 A3018 RMK A01 T02370187  RH  074%=      5-min Rain = 0
KMC5 140427Z 07005KT 24/19 A3018 RMK A01 T02360187  RH  074%=      5-min Rain = 0
KMC5 140428Z 07005KT 24/19 A3018 RMK A01 T02360187  RH  074%=      5-min Rain = 0
KMC5 140429Z 07006KT 24/19 A3018 RMK A01 T02350187  RH  074%=      5-min Rain = 0
KMC5 140430Z 07006KT 24/19 A3018 RMK A01 T02350187  RH  074%=      5-min Rain = 0
KMC5 140431Z 07006KT 24/19 A3019 RMK A01 T02350187  RH  074%=      5-min Rain = 0
KMC5 140432Z 06006KT 24/19 A3019 RMK A01 T02350187  RH  075%=      5-min Rain = 0
KMC5 140433Z 06006KT 23/19 A3019 RMK A01 T02340187  RH  075%=      5-min Rain = 0
KMC5 140434Z 06006KT 23/19 A3019 RMK A01 T02340187  RH  075%=      5-min Rain = 0
KMC5 140435Z 06007KT 23/19 A3019 RMK A01 T02320187  RH  076%=      5-min Rain = 0
KMC5 140436Z 06007KT 23/19 A3019 RMK A01 T02310187  RH  076%=      5-min Rain = 0
KMC5 140437Z 06007KT 23/19 A3019 RMK A01 T02300187  RH  077%=      5-min Rain = 0
KMC5 140438Z 06007KT 23/19 A3019 RMK A01 T02290187  RH  077%=      5-min Rain = 0
KMC5 140439Z 06007KT 23/19 A3019 RMK A01 T02290187  RH  077%=      5-min Rain = 0
KMC5 140440Z 06007KT 23/19 A3019 RMK A01 T02280186  RH  077%=      5-min Rain = 0
KMC5 140441Z 05007KT 23/19 A3019 RMK A01 T02270187  RH  078%=      5-min Rain = 0
KMC5 140442Z 05007KT 23/19 A302 RMK A01 T02270187  RH  078%=      5-min Rain = 0
KMC5 140443Z 05007KT 23/19 A302 RMK A01 T02260187  RH  079%=      5-min Rain = 0
KMC5 140444Z 05007KT 23/19 A302 RMK A01 T02250187  RH  079%=      5-min Rain = 0
KMC5 140445Z 05007KT 23/19 A302 RMK A01 T02250187  RH  079%=      5-min Rain = 0
KMC5 140446Z 05007KT 23/19 A302 RMK A01 T02250187  RH  079%=      5-min Rain = 0
KMC5 140447Z 04007KT 23/19 A302 RMK A01 T02250187  RH  079%=      5-min Rain = 0
KMC5 140448Z 04007KT 23/19 A3021 RMK A01 T02250187  RH  079%=      5-min Rain = 0
KMC5 140449Z 04007KT 23/19 A3021 RMK A01 T02260187  RH  079%=      5-min Rain = 0
KMC5 140450Z 03008KT 23/19 A3021 RMK A01 T02260187  RH  079%=      5-min Rain = 0
KMC5 140451Z 03008KT 23/19 A3021 RMK A01 T02270187  RH  078%=      5-min Rain = 0
KMC5 140452Z 02008KT 23/19 A3021 RMK A01 T02270187  RH  078%=      5-min Rain = 0
KMC5 140453Z 03008KT 23/19 A3021 RMK A01 T02270188  RH  079%=      5-min Rain = 0
KMC5 140454Z 03009KT 23/19 A3021 RMK A01 T02260187  RH  079%=      5-min Rain = 0
KMC5 140455Z 03008KT 23/19 A3021 RMK A01 T02260187  RH  079%=      5-min Rain = 0
KMC5 140456Z 03008KT 23/19 A3021 RMK A01 T02260186  RH  078%=      5-min Rain = 0
KMC5 140457Z 03007KT 23/19 A3021 RMK A01 T02260186  RH  078%=      5-min Rain = 0
KMC5 140458Z 03007KT 23/19 A3021 RMK A01 T02250186  RH  078%=      5-min Rain = 0
KMC5 140459Z 03007KT 23/19 A3021 RMK A01 T02250186  RH  079%=      5-min Rain = 0

Page generated in 0.0719 seconds.